<?xml version="1.0" encoding="UTF-8"?>
<gpx version="1.0" creator="GPSBabel - https://www.gpsbabel.org" xmlns="http://www.topografix.com/GPX/1/0">
  <time>2021-08-07T01:02:50.333Z</time>
  <bounds minlat="36.480220975" minlon="-78.888492761" maxlat="36.538069434" maxlon="-78.871778073"/>
  <wpt lat="36.480258191" lon="-78.877419261">
    <ele>133.198</ele>
    <name>Boat Ramp</name>
    <cmt>01-NOV-08 8:30:49AM</cmt>
    <desc>01-NOV-08 8:30:49AM</desc>
    <sym>Boat Ramp</sym>
  </wpt>
  <wpt lat="36.508149980" lon="-78.880104739">
    <ele>136.550</ele>
    <name>Lunch Stop</name>
    <cmt>01-NOV-08 12:35:29PM</cmt>
    <desc>01-NOV-08 12:35:29PM</desc>
    <sym>Picnic Area</sym>
  </wpt>
  <wpt lat="36.529862378" lon="-78.884349586">
    <ele>136.246</ele>
    <name>PE Boat Ramp</name>
    <cmt>01-NOV-08 10:34:27AM</cmt>
    <desc>01-NOV-08 10:34:27AM</desc>
    <sym>Boat Ramp</sym>
  </wpt>
  <trk>
    <name>01-NOV-08</name>
    <trkseg>
      <trkpt lat="36.480260789" lon="-78.877389422">
        <ele>132.799</ele>
        <time>2008-11-01T12:33:55Z</time>
      </trkpt>
      <trkpt lat="36.480273614" lon="-78.877382549">
        <ele>131.357</ele>
        <time>2008-11-01T12:34:30Z</time>
      </trkpt>
      <trkpt lat="36.480279313" lon="-78.877377100">
        <ele>130.396</ele>
        <time>2008-11-01T12:34:49Z</time>
      </trkpt>
      <trkpt lat="36.480273865" lon="-78.877431247">
        <ele>128.473</ele>
        <time>2008-11-01T12:39:14Z</time>
      </trkpt>
      <trkpt lat="36.480277302" lon="-78.877528142">
        <ele>128.473</ele>
        <time>2008-11-01T12:39:44Z</time>
      </trkpt>
      <trkpt lat="36.480632108" lon="-78.877743641">
        <ele>128.954</ele>
        <time>2008-11-01T12:40:13Z</time>
      </trkpt>
      <trkpt lat="36.481005186" lon="-78.878066763">
        <ele>129.435</ele>
        <time>2008-11-01T12:40:44Z</time>
      </trkpt>
      <trkpt lat="36.481419504" lon="-78.878454594">
        <ele>129.915</ele>
        <time>2008-11-01T12:41:19Z</time>
      </trkpt>
      <trkpt lat="36.481763078" lon="-78.878759528">
        <ele>128.473</ele>
        <time>2008-11-01T12:41:50Z</time>
      </trkpt>
      <trkpt lat="36.482083853" lon="-78.879061947">
        <ele>128.954</ele>
        <time>2008-11-01T12:42:20Z</time>
      </trkpt>
      <trkpt lat="36.482413178" lon="-78.879543571">
        <ele>128.954</ele>
        <time>2008-11-01T12:42:55Z</time>
      </trkpt>
      <trkpt lat="36.482644938" lon="-78.879956212">
        <ele>129.435</ele>
        <time>2008-11-01T12:43:27Z</time>
      </trkpt>
      <trkpt lat="36.482999912" lon="-78.880189816">
        <ele>128.473</ele>
        <time>2008-11-01T12:43:58Z</time>
      </trkpt>
      <trkpt lat="36.483322950" lon="-78.880279837">
        <ele>129.435</ele>
        <time>2008-11-01T12:44:23Z</time>
      </trkpt>
      <trkpt lat="36.483720420" lon="-78.880266426">
        <ele>130.877</ele>
        <time>2008-11-01T12:44:53Z</time>
      </trkpt>
      <trkpt lat="36.484083356" lon="-78.880200963">
        <ele>129.915</ele>
        <time>2008-11-01T12:45:20Z</time>
      </trkpt>
      <trkpt lat="36.484448137" lon="-78.880107589">
        <ele>130.877</ele>
        <time>2008-11-01T12:45:50Z</time>
      </trkpt>
      <trkpt lat="36.484775115" lon="-78.879840961">
        <ele>129.435</ele>
        <time>2008-11-01T12:46:20Z</time>
      </trkpt>
      <trkpt lat="36.485175434" lon="-78.879747335">
        <ele>129.915</ele>
        <time>2008-11-01T12:46:51Z</time>
      </trkpt>
      <trkpt lat="36.485505430" lon="-78.879805589">
        <ele>129.915</ele>
        <time>2008-11-01T12:47:21Z</time>
      </trkpt>
      <trkpt lat="36.485599894" lon="-78.879825622">
        <ele>129.435</ele>
        <time>2008-11-01T12:47:58Z</time>
      </trkpt>
      <trkpt lat="36.485642223" lon="-78.879838781">
        <ele>130.396</ele>
        <time>2008-11-01T12:48:25Z</time>
      </trkpt>
      <trkpt lat="36.485692933" lon="-78.879904915">
        <ele>130.396</ele>
        <time>2008-11-01T12:48:50Z</time>
      </trkpt>
      <trkpt lat="36.486088475" lon="-78.879907262">
        <ele>131.357</ele>
        <time>2008-11-01T12:49:20Z</time>
      </trkpt>
      <trkpt lat="36.486725248" lon="-78.879831824">
        <ele>130.877</ele>
        <time>2008-11-01T12:50:04Z</time>
      </trkpt>
      <trkpt lat="36.487146774" lon="-78.879594784">
        <ele>130.877</ele>
        <time>2008-11-01T12:50:38Z</time>
      </trkpt>
      <trkpt lat="36.487535611" lon="-78.879522365">
        <ele>129.915</ele>
        <time>2008-11-01T12:51:05Z</time>
      </trkpt>
      <trkpt lat="36.488022851" lon="-78.879384734">
        <ele>129.915</ele>
        <time>2008-11-01T12:51:38Z</time>
      </trkpt>
      <trkpt lat="36.488429625" lon="-78.879305944">
        <ele>130.396</ele>
        <time>2008-11-01T12:52:05Z</time>
      </trkpt>
      <trkpt lat="36.488851570" lon="-78.879197985">
        <ele>129.435</ele>
        <time>2008-11-01T12:52:33Z</time>
      </trkpt>
      <trkpt lat="36.489277203" lon="-78.879082901">
        <ele>129.915</ele>
        <time>2008-11-01T12:53:02Z</time>
      </trkpt>
      <trkpt lat="36.489775004" lon="-78.878977792">
        <ele>130.396</ele>
        <time>2008-11-01T12:53:36Z</time>
      </trkpt>
      <trkpt lat="36.490242295" lon="-78.878945857">
        <ele>130.877</ele>
        <time>2008-11-01T12:54:08Z</time>
      </trkpt>
      <trkpt lat="36.490701707" lon="-78.879090864">
        <ele>131.357</ele>
        <time>2008-11-01T12:54:41Z</time>
      </trkpt>
      <trkpt lat="36.491271509" lon="-78.879268309">
        <ele>130.396</ele>
        <time>2008-11-01T12:55:22Z</time>
      </trkpt>
      <trkpt lat="36.491727484" lon="-78.879430667">
        <ele>130.396</ele>
        <time>2008-11-01T12:55:55Z</time>
      </trkpt>
      <trkpt lat="36.492013140" lon="-78.879621690">
        <ele>129.435</ele>
        <time>2008-11-01T12:56:22Z</time>
      </trkpt>
      <trkpt lat="36.492517898" lon="-78.879888067">
        <ele>129.435</ele>
        <time>2008-11-01T12:57:00Z</time>
      </trkpt>
      <trkpt lat="36.492838254" lon="-78.880089149">
        <ele>129.435</ele>
        <time>2008-11-01T12:57:29Z</time>
      </trkpt>
      <trkpt lat="36.492932718" lon="-78.880253518">
        <ele>129.435</ele>
        <time>2008-11-01T12:58:10Z</time>
      </trkpt>
      <trkpt lat="36.493023410" lon="-78.880302468">
        <ele>129.915</ele>
        <time>2008-11-01T12:58:39Z</time>
      </trkpt>
      <trkpt lat="36.493481565" lon="-78.880447224">
        <ele>129.915</ele>
        <time>2008-11-01T12:59:16Z</time>
      </trkpt>
      <trkpt lat="36.493971655" lon="-78.880511094">
        <ele>129.915</ele>
        <time>2008-11-01T12:59:52Z</time>
      </trkpt>
      <trkpt lat="36.494455459" lon="-78.880528696">
        <ele>130.396</ele>
        <time>2008-11-01T13:00:26Z</time>
      </trkpt>
      <trkpt lat="36.494896179" lon="-78.880528947">
        <ele>130.396</ele>
        <time>2008-11-01T13:00:58Z</time>
      </trkpt>
      <trkpt lat="36.495433124" lon="-78.880585860">
        <ele>130.396</ele>
        <time>2008-11-01T13:01:36Z</time>
      </trkpt>
      <trkpt lat="36.495839646" lon="-78.880612347">
        <ele>130.396</ele>
        <time>2008-11-01T13:02:04Z</time>
      </trkpt>
      <trkpt lat="36.496318839" lon="-78.880640678">
        <ele>130.877</ele>
        <time>2008-11-01T13:02:38Z</time>
      </trkpt>
      <trkpt lat="36.496802475" lon="-78.880704632">
        <ele>130.396</ele>
        <time>2008-11-01T13:03:14Z</time>
      </trkpt>
      <trkpt lat="36.497280076" lon="-78.880715612">
        <ele>130.396</ele>
        <time>2008-11-01T13:03:49Z</time>
      </trkpt>
      <trkpt lat="36.497703530" lon="-78.880813010">
        <ele>130.877</ele>
        <time>2008-11-01T13:04:22Z</time>
      </trkpt>
      <trkpt lat="36.497907462" lon="-78.880889872">
        <ele>130.877</ele>
        <time>2008-11-01T13:04:52Z</time>
      </trkpt>
      <trkpt lat="36.497981725" lon="-78.880926417">
        <ele>130.877</ele>
        <time>2008-11-01T13:05:09Z</time>
      </trkpt>
      <trkpt lat="36.498100748" lon="-78.880930273">
        <ele>130.396</ele>
        <time>2008-11-01T13:06:02Z</time>
      </trkpt>
      <trkpt lat="36.498145843" lon="-78.880917532">
        <ele>130.877</ele>
        <time>2008-11-01T13:06:43Z</time>
      </trkpt>
      <trkpt lat="36.498173587" lon="-78.880901607">
        <ele>130.877</ele>
        <time>2008-11-01T13:07:29Z</time>
      </trkpt>
      <trkpt lat="36.498260591" lon="-78.880845280">
        <ele>130.877</ele>
        <time>2008-11-01T13:10:34Z</time>
      </trkpt>
      <trkpt lat="36.498361928" lon="-78.880834552">
        <ele>134.241</ele>
        <time>2008-11-01T13:11:35Z</time>
      </trkpt>
      <trkpt lat="36.498376094" lon="-78.880842011">
        <ele>130.877</ele>
        <time>2008-11-01T13:11:38Z</time>
      </trkpt>
      <trkpt lat="36.498463098" lon="-78.880896159">
        <ele>134.241</ele>
        <time>2008-11-01T13:12:07Z</time>
      </trkpt>
      <trkpt lat="36.498465529" lon="-78.880898757">
        <ele>129.435</ele>
        <time>2008-11-01T13:12:08Z</time>
      </trkpt>
      <trkpt lat="36.498472821" lon="-78.880905546">
        <ele>134.241</ele>
        <time>2008-11-01T13:12:12Z</time>
      </trkpt>
      <trkpt lat="36.498484220" lon="-78.880913425">
        <ele>131.357</ele>
        <time>2008-11-01T13:12:17Z</time>
      </trkpt>
      <trkpt lat="36.498622522" lon="-78.880984839">
        <ele>131.357</ele>
        <time>2008-11-01T13:12:40Z</time>
      </trkpt>
      <trkpt lat="36.499178912" lon="-78.881020462">
        <ele>130.396</ele>
        <time>2008-11-01T13:13:19Z</time>
      </trkpt>
      <trkpt lat="36.499733375" lon="-78.881130097">
        <ele>131.357</ele>
        <time>2008-11-01T13:14:00Z</time>
      </trkpt>
      <trkpt lat="36.500134030" lon="-78.881224729">
        <ele>130.877</ele>
        <time>2008-11-01T13:14:30Z</time>
      </trkpt>
      <trkpt lat="36.500724200" lon="-78.881322630">
        <ele>131.357</ele>
        <time>2008-11-01T13:15:12Z</time>
      </trkpt>
      <trkpt lat="36.501180176" lon="-78.881480210">
        <ele>130.877</ele>
        <time>2008-11-01T13:15:48Z</time>
      </trkpt>
      <trkpt lat="36.501618298" lon="-78.881652541">
        <ele>131.357</ele>
        <time>2008-11-01T13:16:22Z</time>
      </trkpt>
      <trkpt lat="36.502037225" lon="-78.881787155">
        <ele>130.877</ele>
        <time>2008-11-01T13:16:56Z</time>
      </trkpt>
      <trkpt lat="36.502467468" lon="-78.881852617">
        <ele>130.396</ele>
        <time>2008-11-01T13:17:28Z</time>
      </trkpt>
      <trkpt lat="36.503014136" lon="-78.881833423">
        <ele>129.915</ele>
        <time>2008-11-01T13:18:07Z</time>
      </trkpt>
      <trkpt lat="36.503079934" lon="-78.881849432">
        <ele>129.915</ele>
        <time>2008-11-01T13:18:28Z</time>
      </trkpt>
      <trkpt lat="36.502927048" lon="-78.881663186">
        <ele>130.396</ele>
        <time>2008-11-01T13:19:01Z</time>
      </trkpt>
      <trkpt lat="36.502915900" lon="-78.881566795">
        <ele>130.396</ele>
        <time>2008-11-01T13:19:37Z</time>
      </trkpt>
      <trkpt lat="36.502933754" lon="-78.881581463">
        <ele>130.877</ele>
        <time>2008-11-01T13:20:10Z</time>
      </trkpt>
      <trkpt lat="36.503046574" lon="-78.881746503">
        <ele>130.877</ele>
        <time>2008-11-01T13:20:34Z</time>
      </trkpt>
      <trkpt lat="36.503094183" lon="-78.881783886">
        <ele>130.877</ele>
        <time>2008-11-01T13:20:41Z</time>
      </trkpt>
      <trkpt lat="36.503383024" lon="-78.881802578">
        <ele>130.877</ele>
        <time>2008-11-01T13:21:07Z</time>
      </trkpt>
      <trkpt lat="36.503836568" lon="-78.881488340">
        <ele>131.838</ele>
        <time>2008-11-01T13:21:40Z</time>
      </trkpt>
      <trkpt lat="36.504263962" lon="-78.881098414">
        <ele>131.838</ele>
        <time>2008-11-01T13:22:14Z</time>
      </trkpt>
      <trkpt lat="36.504642991" lon="-78.880746206">
        <ele>130.877</ele>
        <time>2008-11-01T13:22:46Z</time>
      </trkpt>
      <trkpt lat="36.505029816" lon="-78.880354604">
        <ele>130.877</ele>
        <time>2008-11-01T13:23:20Z</time>
      </trkpt>
      <trkpt lat="36.505419491" lon="-78.880029637">
        <ele>130.877</ele>
        <time>2008-11-01T13:23:52Z</time>
      </trkpt>
      <trkpt lat="36.505983593" lon="-78.879578607">
        <ele>131.357</ele>
        <time>2008-11-01T13:24:37Z</time>
      </trkpt>
      <trkpt lat="36.506375363" lon="-78.879221622">
        <ele>130.877</ele>
        <time>2008-11-01T13:25:10Z</time>
      </trkpt>
      <trkpt lat="36.506750369" lon="-78.878839323">
        <ele>129.915</ele>
        <time>2008-11-01T13:25:43Z</time>
      </trkpt>
      <trkpt lat="36.507142056" lon="-78.878502790">
        <ele>130.396</ele>
        <time>2008-11-01T13:26:15Z</time>
      </trkpt>
      <trkpt lat="36.507608090" lon="-78.878010940">
        <ele>131.357</ele>
        <time>2008-11-01T13:26:55Z</time>
      </trkpt>
      <trkpt lat="36.508024000" lon="-78.877596539">
        <ele>131.838</ele>
        <time>2008-11-01T13:27:30Z</time>
      </trkpt>
      <trkpt lat="36.508410992" lon="-78.877240811">
        <ele>130.877</ele>
        <time>2008-11-01T13:28:02Z</time>
      </trkpt>
      <trkpt lat="36.508804355" lon="-78.876906792">
        <ele>130.396</ele>
        <time>2008-11-01T13:28:34Z</time>
      </trkpt>
      <trkpt lat="36.509229820" lon="-78.876491636">
        <ele>131.357</ele>
        <time>2008-11-01T13:29:10Z</time>
      </trkpt>
      <trkpt lat="36.509739608" lon="-78.875985704">
        <ele>132.319</ele>
        <time>2008-11-01T13:29:54Z</time>
      </trkpt>
      <trkpt lat="36.510109333" lon="-78.875633748">
        <ele>131.357</ele>
        <time>2008-11-01T13:30:27Z</time>
      </trkpt>
      <trkpt lat="36.510521472" lon="-78.875292605">
        <ele>131.357</ele>
        <time>2008-11-01T13:31:00Z</time>
      </trkpt>
      <trkpt lat="36.511001000" lon="-78.874922879">
        <ele>130.877</ele>
        <time>2008-11-01T13:31:39Z</time>
      </trkpt>
      <trkpt lat="36.511393357" lon="-78.874614676">
        <ele>131.357</ele>
        <time>2008-11-01T13:32:11Z</time>
      </trkpt>
      <trkpt lat="36.511935499" lon="-78.874256266">
        <ele>130.877</ele>
        <time>2008-11-01T13:32:53Z</time>
      </trkpt>
      <trkpt lat="36.512333388" lon="-78.874000199">
        <ele>130.877</ele>
        <time>2008-11-01T13:33:23Z</time>
      </trkpt>
      <trkpt lat="36.512726415" lon="-78.873715047">
        <ele>131.357</ele>
        <time>2008-11-01T13:33:54Z</time>
      </trkpt>
      <trkpt lat="36.513149114" lon="-78.873452609">
        <ele>131.357</ele>
        <time>2008-11-01T13:34:26Z</time>
      </trkpt>
      <trkpt lat="36.513558151" lon="-78.873194447">
        <ele>131.357</ele>
        <time>2008-11-01T13:34:58Z</time>
      </trkpt>
      <trkpt lat="36.513953777" lon="-78.872949528">
        <ele>130.877</ele>
        <time>2008-11-01T13:35:30Z</time>
      </trkpt>
      <trkpt lat="36.514161732" lon="-78.872886160">
        <ele>132.319</ele>
        <time>2008-11-01T13:36:00Z</time>
      </trkpt>
      <trkpt lat="36.514291400" lon="-78.872783314">
        <ele>131.357</ele>
        <time>2008-11-01T13:36:42Z</time>
      </trkpt>
      <trkpt lat="36.514322162" lon="-78.872737968">
        <ele>130.877</ele>
        <time>2008-11-01T13:37:04Z</time>
      </trkpt>
      <trkpt lat="36.514379578" lon="-78.872674517">
        <ele>130.877</ele>
        <time>2008-11-01T13:37:57Z</time>
      </trkpt>
      <trkpt lat="36.514422745" lon="-78.872609641">
        <ele>130.396</ele>
        <time>2008-11-01T13:38:38Z</time>
      </trkpt>
      <trkpt lat="36.514556352" lon="-78.872466981">
        <ele>130.396</ele>
        <time>2008-11-01T13:39:00Z</time>
      </trkpt>
      <trkpt lat="36.515092291" lon="-78.872208903">
        <ele>131.357</ele>
        <time>2008-11-01T13:39:38Z</time>
      </trkpt>
      <trkpt lat="36.515598306" lon="-78.871957446">
        <ele>130.877</ele>
        <time>2008-11-01T13:40:15Z</time>
      </trkpt>
      <trkpt lat="36.516041458" lon="-78.871958703">
        <ele>131.838</ele>
        <time>2008-11-01T13:40:49Z</time>
      </trkpt>
      <trkpt lat="36.516482010" lon="-78.872082587">
        <ele>131.838</ele>
        <time>2008-11-01T13:41:23Z</time>
      </trkpt>
      <trkpt lat="36.516878055" lon="-78.872218458">
        <ele>131.357</ele>
        <time>2008-11-01T13:41:52Z</time>
      </trkpt>
      <trkpt lat="36.517337970" lon="-78.872335469">
        <ele>130.877</ele>
        <time>2008-11-01T13:42:25Z</time>
      </trkpt>
      <trkpt lat="36.517850859" lon="-78.872422976">
        <ele>130.396</ele>
        <time>2008-11-01T13:43:02Z</time>
      </trkpt>
      <trkpt lat="36.518559968" lon="-78.872553483">
        <ele>130.396</ele>
        <time>2008-11-01T13:43:53Z</time>
      </trkpt>
      <trkpt lat="36.519085430" lon="-78.872656245">
        <ele>130.396</ele>
        <time>2008-11-01T13:44:31Z</time>
      </trkpt>
      <trkpt lat="36.519506369" lon="-78.872769233">
        <ele>130.877</ele>
        <time>2008-11-01T13:45:03Z</time>
      </trkpt>
      <trkpt lat="36.520062676" lon="-78.872926896">
        <ele>130.877</ele>
        <time>2008-11-01T13:45:47Z</time>
      </trkpt>
      <trkpt lat="36.520592747" lon="-78.873084644">
        <ele>130.396</ele>
        <time>2008-11-01T13:46:30Z</time>
      </trkpt>
      <trkpt lat="36.520933555" lon="-78.873195034">
        <ele>130.396</ele>
        <time>2008-11-01T13:47:03Z</time>
      </trkpt>
      <trkpt lat="36.520946212" lon="-78.873194195">
        <ele>130.396</ele>
        <time>2008-11-01T13:47:28Z</time>
      </trkpt>
      <trkpt lat="36.520950822" lon="-78.873197464">
        <ele>133.760</ele>
        <time>2008-11-01T13:48:20Z</time>
      </trkpt>
      <trkpt lat="36.520950990" lon="-78.873197380">
        <ele>128.954</ele>
        <time>2008-11-01T13:48:22Z</time>
      </trkpt>
      <trkpt lat="36.520951074" lon="-78.873197297">
        <ele>128.954</ele>
        <time>2008-11-01T13:48:23Z</time>
      </trkpt>
      <trkpt lat="36.520951409" lon="-78.873197129">
        <ele>133.280</ele>
        <time>2008-11-01T13:48:27Z</time>
      </trkpt>
      <trkpt lat="36.520951493" lon="-78.873197129">
        <ele>129.915</ele>
        <time>2008-11-01T13:48:28Z</time>
      </trkpt>
      <trkpt lat="36.520953504" lon="-78.873197883">
        <ele>134.241</ele>
        <time>2008-11-01T13:48:43Z</time>
      </trkpt>
      <trkpt lat="36.520953588" lon="-78.873197967">
        <ele>128.954</ele>
        <time>2008-11-01T13:48:44Z</time>
      </trkpt>
      <trkpt lat="36.520953672" lon="-78.873198135">
        <ele>132.799</ele>
        <time>2008-11-01T13:48:45Z</time>
      </trkpt>
      <trkpt lat="36.520953923" lon="-78.873198470">
        <ele>128.473</ele>
        <time>2008-11-01T13:48:48Z</time>
      </trkpt>
      <trkpt lat="36.520954007" lon="-78.873198554">
        <ele>132.319</ele>
        <time>2008-11-01T13:48:49Z</time>
      </trkpt>
      <trkpt lat="36.520955767" lon="-78.873199308">
        <ele>130.877</ele>
        <time>2008-11-01T13:49:07Z</time>
      </trkpt>
      <trkpt lat="36.520919893" lon="-78.873186987">
        <ele>129.435</ele>
        <time>2008-11-01T13:56:38Z</time>
      </trkpt>
      <trkpt lat="36.520861220" lon="-78.873133343">
        <ele>129.435</ele>
        <time>2008-11-01T13:57:03Z</time>
      </trkpt>
      <trkpt lat="36.520881504" lon="-78.873250689">
        <ele>129.435</ele>
        <time>2008-11-01T13:57:22Z</time>
      </trkpt>
      <trkpt lat="36.520869015" lon="-78.873375999">
        <ele>129.435</ele>
        <time>2008-11-01T13:57:38Z</time>
      </trkpt>
      <trkpt lat="36.521091806" lon="-78.873719238">
        <ele>129.435</ele>
        <time>2008-11-01T13:58:05Z</time>
      </trkpt>
      <trkpt lat="36.521358686" lon="-78.874096423">
        <ele>129.435</ele>
        <time>2008-11-01T13:58:35Z</time>
      </trkpt>
      <trkpt lat="36.521672169" lon="-78.874470172">
        <ele>129.435</ele>
        <time>2008-11-01T13:59:07Z</time>
      </trkpt>
      <trkpt lat="36.521951286" lon="-78.874859847">
        <ele>129.435</ele>
        <time>2008-11-01T13:59:38Z</time>
      </trkpt>
      <trkpt lat="36.522226129" lon="-78.875274416">
        <ele>128.954</ele>
        <time>2008-11-01T14:00:10Z</time>
      </trkpt>
      <trkpt lat="36.522537097" lon="-78.875652188">
        <ele>129.915</ele>
        <time>2008-11-01T14:00:42Z</time>
      </trkpt>
      <trkpt lat="36.522826441" lon="-78.875890737">
        <ele>129.435</ele>
        <time>2008-11-01T14:01:10Z</time>
      </trkpt>
      <trkpt lat="36.523126764" lon="-78.876246633">
        <ele>129.915</ele>
        <time>2008-11-01T14:01:41Z</time>
      </trkpt>
      <trkpt lat="36.523476709" lon="-78.876635721">
        <ele>129.435</ele>
        <time>2008-11-01T14:02:14Z</time>
      </trkpt>
      <trkpt lat="36.523791533" lon="-78.877029838">
        <ele>129.915</ele>
        <time>2008-11-01T14:02:46Z</time>
      </trkpt>
      <trkpt lat="36.524133682" lon="-78.877458908">
        <ele>130.396</ele>
        <time>2008-11-01T14:03:21Z</time>
      </trkpt>
      <trkpt lat="36.524213059" lon="-78.877643142">
        <ele>129.915</ele>
        <time>2008-11-01T14:03:44Z</time>
      </trkpt>
      <trkpt lat="36.524213729" lon="-78.877761075">
        <ele>130.877</ele>
        <time>2008-11-01T14:04:22Z</time>
      </trkpt>
      <trkpt lat="36.524265697" lon="-78.877872555">
        <ele>130.396</ele>
        <time>2008-11-01T14:04:52Z</time>
      </trkpt>
      <trkpt lat="36.524316743" lon="-78.878214369">
        <ele>130.396</ele>
        <time>2008-11-01T14:05:16Z</time>
      </trkpt>
      <trkpt lat="36.524140639" lon="-78.878643773">
        <ele>130.396</ele>
        <time>2008-11-01T14:05:47Z</time>
      </trkpt>
      <trkpt lat="36.523987586" lon="-78.879089858">
        <ele>130.877</ele>
        <time>2008-11-01T14:06:18Z</time>
      </trkpt>
      <trkpt lat="36.523987502" lon="-78.879066892">
        <ele>130.396</ele>
        <time>2008-11-01T14:06:34Z</time>
      </trkpt>
      <trkpt lat="36.523988508" lon="-78.878996987">
        <ele>130.877</ele>
        <time>2008-11-01T14:07:05Z</time>
      </trkpt>
      <trkpt lat="36.523975851" lon="-78.879008219">
        <ele>131.357</ele>
        <time>2008-11-01T14:07:43Z</time>
      </trkpt>
      <trkpt lat="36.524146171" lon="-78.879559329">
        <ele>131.357</ele>
        <time>2008-11-01T14:08:18Z</time>
      </trkpt>
      <trkpt lat="36.524334177" lon="-78.880021675">
        <ele>131.838</ele>
        <time>2008-11-01T14:08:49Z</time>
      </trkpt>
      <trkpt lat="36.524525620" lon="-78.880498940">
        <ele>131.357</ele>
        <time>2008-11-01T14:09:22Z</time>
      </trkpt>
      <trkpt lat="36.524647493" lon="-78.880793480">
        <ele>131.357</ele>
        <time>2008-11-01T14:09:55Z</time>
      </trkpt>
      <trkpt lat="36.524781017" lon="-78.880993221">
        <ele>131.357</ele>
        <time>2008-11-01T14:10:36Z</time>
      </trkpt>
      <trkpt lat="36.524813958" lon="-78.881042255">
        <ele>131.357</ele>
        <time>2008-11-01T14:10:41Z</time>
      </trkpt>
      <trkpt lat="36.525044544" lon="-78.881312152">
        <ele>131.838</ele>
        <time>2008-11-01T14:11:15Z</time>
      </trkpt>
      <trkpt lat="36.525089722" lon="-78.881309973">
        <ele>131.838</ele>
        <time>2008-11-01T14:11:59Z</time>
      </trkpt>
      <trkpt lat="36.525099110" lon="-78.881298574">
        <ele>132.319</ele>
        <time>2008-11-01T14:12:28Z</time>
      </trkpt>
      <trkpt lat="36.524924431" lon="-78.881197404">
        <ele>132.319</ele>
        <time>2008-11-01T14:12:50Z</time>
      </trkpt>
      <trkpt lat="36.524679847" lon="-78.880860116">
        <ele>132.319</ele>
        <time>2008-11-01T14:13:22Z</time>
      </trkpt>
      <trkpt lat="36.524595777" lon="-78.880451163">
        <ele>132.799</ele>
        <time>2008-11-01T14:13:52Z</time>
      </trkpt>
      <trkpt lat="36.524627795" lon="-78.879966438">
        <ele>132.319</ele>
        <time>2008-11-01T14:14:23Z</time>
      </trkpt>
      <trkpt lat="36.524791662" lon="-78.879638454">
        <ele>132.799</ele>
        <time>2008-11-01T14:14:51Z</time>
      </trkpt>
      <trkpt lat="36.525085364" lon="-78.879360510">
        <ele>132.799</ele>
        <time>2008-11-01T14:15:21Z</time>
      </trkpt>
      <trkpt lat="36.525404798" lon="-78.879393367">
        <ele>132.319</ele>
        <time>2008-11-01T14:15:47Z</time>
      </trkpt>
      <trkpt lat="36.525477469" lon="-78.879416585">
        <ele>128.954</ele>
        <time>2008-11-01T14:15:53Z</time>
      </trkpt>
      <trkpt lat="36.525488365" lon="-78.879418513">
        <ele>132.799</ele>
        <time>2008-11-01T14:15:54Z</time>
      </trkpt>
      <trkpt lat="36.525746612" lon="-78.879504679">
        <ele>132.799</ele>
        <time>2008-11-01T14:16:19Z</time>
      </trkpt>
      <trkpt lat="36.526047187" lon="-78.879697379">
        <ele>132.799</ele>
        <time>2008-11-01T14:16:47Z</time>
      </trkpt>
      <trkpt lat="36.526409704" lon="-78.879622696">
        <ele>133.760</ele>
        <time>2008-11-01T14:17:20Z</time>
      </trkpt>
      <trkpt lat="36.526502576" lon="-78.879557485">
        <ele>133.760</ele>
        <time>2008-11-01T14:17:44Z</time>
      </trkpt>
      <trkpt lat="36.526555298" lon="-78.879507864">
        <ele>133.280</ele>
        <time>2008-11-01T14:18:07Z</time>
      </trkpt>
      <trkpt lat="36.526708771" lon="-78.879659912">
        <ele>132.799</ele>
        <time>2008-11-01T14:18:35Z</time>
      </trkpt>
      <trkpt lat="36.526727378" lon="-78.879686315">
        <ele>132.799</ele>
        <time>2008-11-01T14:18:38Z</time>
      </trkpt>
      <trkpt lat="36.526894346" lon="-78.879905669">
        <ele>132.799</ele>
        <time>2008-11-01T14:19:05Z</time>
      </trkpt>
      <trkpt lat="36.526992498" lon="-78.880036678">
        <ele>132.319</ele>
        <time>2008-11-01T14:19:30Z</time>
      </trkpt>
      <trkpt lat="36.527055614" lon="-78.880080935">
        <ele>132.319</ele>
        <time>2008-11-01T14:19:39Z</time>
      </trkpt>
      <trkpt lat="36.527348813" lon="-78.880037935">
        <ele>133.280</ele>
        <time>2008-11-01T14:20:05Z</time>
      </trkpt>
      <trkpt lat="36.527618710" lon="-78.880159473">
        <ele>133.280</ele>
        <time>2008-11-01T14:20:34Z</time>
      </trkpt>
      <trkpt lat="36.527753491" lon="-78.880529786">
        <ele>132.799</ele>
        <time>2008-11-01T14:21:04Z</time>
      </trkpt>
      <trkpt lat="36.527894726" lon="-78.880861625">
        <ele>133.280</ele>
        <time>2008-11-01T14:21:37Z</time>
      </trkpt>
      <trkpt lat="36.528137717" lon="-78.881173767">
        <ele>132.799</ele>
        <time>2008-11-01T14:22:10Z</time>
      </trkpt>
      <trkpt lat="36.528312396" lon="-78.881419692">
        <ele>132.799</ele>
        <time>2008-11-01T14:22:41Z</time>
      </trkpt>
      <trkpt lat="36.528274426" lon="-78.881619349">
        <ele>132.799</ele>
        <time>2008-11-01T14:23:25Z</time>
      </trkpt>
      <trkpt lat="36.528269313" lon="-78.881805176">
        <ele>132.799</ele>
        <time>2008-11-01T14:24:02Z</time>
      </trkpt>
      <trkpt lat="36.528421193" lon="-78.882045150">
        <ele>132.319</ele>
        <time>2008-11-01T14:24:36Z</time>
      </trkpt>
      <trkpt lat="36.528452625" lon="-78.882145565">
        <ele>132.799</ele>
        <time>2008-11-01T14:25:05Z</time>
      </trkpt>
      <trkpt lat="36.528474754" lon="-78.882239610">
        <ele>132.799</ele>
        <time>2008-11-01T14:25:33Z</time>
      </trkpt>
      <trkpt lat="36.528668460" lon="-78.882385204">
        <ele>133.280</ele>
        <time>2008-11-01T14:26:01Z</time>
      </trkpt>
      <trkpt lat="36.529053021" lon="-78.882426023">
        <ele>133.280</ele>
        <time>2008-11-01T14:26:35Z</time>
      </trkpt>
      <trkpt lat="36.529209008" lon="-78.882699776">
        <ele>133.280</ele>
        <time>2008-11-01T14:27:04Z</time>
      </trkpt>
      <trkpt lat="36.529248068" lon="-78.882890129">
        <ele>132.799</ele>
        <time>2008-11-01T14:27:38Z</time>
      </trkpt>
      <trkpt lat="36.529359715" lon="-78.883144688">
        <ele>133.760</ele>
        <time>2008-11-01T14:28:02Z</time>
      </trkpt>
      <trkpt lat="36.529541519" lon="-78.883516090">
        <ele>133.760</ele>
        <time>2008-11-01T14:28:32Z</time>
      </trkpt>
      <trkpt lat="36.529747210" lon="-78.883878775">
        <ele>134.241</ele>
        <time>2008-11-01T14:29:04Z</time>
      </trkpt>
      <trkpt lat="36.529874029" lon="-78.884111540">
        <ele>134.722</ele>
        <time>2008-11-01T14:29:32Z</time>
      </trkpt>
      <trkpt lat="36.529883416" lon="-78.884296110">
        <ele>134.241</ele>
        <time>2008-11-01T14:30:00Z</time>
      </trkpt>
      <trkpt lat="36.529889619" lon="-78.884320837">
        <ele>134.722</ele>
        <time>2008-11-01T14:30:21Z</time>
      </trkpt>
      <trkpt lat="36.529887440" lon="-78.884365931">
        <ele>138.087</ele>
        <time>2008-11-01T14:33:27Z</time>
      </trkpt>
      <trkpt lat="36.529936222" lon="-78.884386970">
        <ele>137.606</ele>
        <time>2008-11-01T14:33:38Z</time>
      </trkpt>
      <trkpt lat="36.529984502" lon="-78.884391077">
        <ele>136.645</ele>
        <time>2008-11-01T14:33:56Z</time>
      </trkpt>
      <trkpt lat="36.529962877" lon="-78.884396106">
        <ele>136.645</ele>
        <time>2008-11-01T14:34:11Z</time>
      </trkpt>
      <trkpt lat="36.529860115" lon="-78.884389987">
        <ele>142.412</ele>
        <time>2008-11-01T14:34:22Z</time>
      </trkpt>
      <trkpt lat="36.529859360" lon="-78.884378169">
        <ele>137.606</ele>
        <time>2008-11-01T14:34:23Z</time>
      </trkpt>
      <trkpt lat="36.529862294" lon="-78.884360148">
        <ele>135.683</ele>
        <time>2008-11-01T14:34:25Z</time>
      </trkpt>
      <trkpt lat="36.529866736" lon="-78.884335505">
        <ele>136.645</ele>
        <time>2008-11-01T14:34:51Z</time>
      </trkpt>
      <trkpt lat="36.529887775" lon="-78.884390071">
        <ele>136.164</ele>
        <time>2008-11-01T14:35:04Z</time>
      </trkpt>
      <trkpt lat="36.529900096" lon="-78.884513453">
        <ele>138.567</ele>
        <time>2008-11-01T14:35:12Z</time>
      </trkpt>
      <trkpt lat="36.529908562" lon="-78.884759042">
        <ele>141.932</ele>
        <time>2008-11-01T14:35:29Z</time>
      </trkpt>
      <trkpt lat="36.529894900" lon="-78.884924585">
        <ele>142.412</ele>
        <time>2008-11-01T14:35:51Z</time>
      </trkpt>
      <trkpt lat="36.529906886" lon="-78.884965153">
        <ele>141.451</ele>
        <time>2008-11-01T14:36:29Z</time>
      </trkpt>
      <trkpt lat="36.529903617" lon="-78.885021228">
        <ele>143.854</ele>
        <time>2008-11-01T14:37:55Z</time>
      </trkpt>
      <trkpt lat="36.529907389" lon="-78.885115860">
        <ele>144.335</ele>
        <time>2008-11-01T14:38:18Z</time>
      </trkpt>
      <trkpt lat="36.529874364" lon="-78.885334376">
        <ele>147.219</ele>
        <time>2008-11-01T14:38:37Z</time>
      </trkpt>
      <trkpt lat="36.529839579" lon="-78.885644339">
        <ele>150.584</ele>
        <time>2008-11-01T14:38:57Z</time>
      </trkpt>
      <trkpt lat="36.529781744" lon="-78.886074247">
        <ele>151.545</ele>
        <time>2008-11-01T14:39:33Z</time>
      </trkpt>
      <trkpt lat="36.529748216" lon="-78.886330398">
        <ele>152.026</ele>
        <time>2008-11-01T14:39:59Z</time>
      </trkpt>
      <trkpt lat="36.529595833" lon="-78.886786960">
        <ele>152.026</ele>
        <time>2008-11-01T14:40:31Z</time>
      </trkpt>
      <trkpt lat="36.528714057" lon="-78.888009628">
        <ele>157.794</ele>
        <time>2008-11-01T14:42:23Z</time>
      </trkpt>
      <trkpt lat="36.528759236" lon="-78.888469292">
        <ele>160.197</ele>
        <time>2008-11-01T14:43:47Z</time>
      </trkpt>
      <trkpt lat="36.528798547" lon="-78.888492761">
        <ele>160.197</ele>
        <time>2008-11-01T14:44:02Z</time>
      </trkpt>
      <trkpt lat="36.528804246" lon="-78.888484631">
        <ele>160.197</ele>
        <time>2008-11-01T14:44:22Z</time>
      </trkpt>
      <trkpt lat="36.528823273" lon="-78.888463592">
        <ele>160.197</ele>
        <time>2008-11-01T14:44:32Z</time>
      </trkpt>
      <trkpt lat="36.529186377" lon="-78.887093067">
        <ele>156.832</ele>
        <time>2008-11-01T14:45:52Z</time>
      </trkpt>
      <trkpt lat="36.529186126" lon="-78.887082506">
        <ele>152.987</ele>
        <time>2008-11-01T14:45:53Z</time>
      </trkpt>
      <trkpt lat="36.529352004" lon="-78.887298256">
        <ele>151.545</ele>
        <time>2008-11-01T14:46:11Z</time>
      </trkpt>
      <trkpt lat="36.529752407" lon="-78.886442631">
        <ele>151.545</ele>
        <time>2008-11-01T14:47:27Z</time>
      </trkpt>
      <trkpt lat="36.529860282" lon="-78.885765374">
        <ele>151.064</ele>
        <time>2008-11-01T14:48:11Z</time>
      </trkpt>
      <trkpt lat="36.529870173" lon="-78.885535877">
        <ele>149.142</ele>
        <time>2008-11-01T14:48:40Z</time>
      </trkpt>
      <trkpt lat="36.529883081" lon="-78.885416267">
        <ele>148.180</ele>
        <time>2008-11-01T14:48:51Z</time>
      </trkpt>
      <trkpt lat="36.529938402" lon="-78.885230608">
        <ele>142.412</ele>
        <time>2008-11-01T14:49:07Z</time>
      </trkpt>
      <trkpt lat="36.529942006" lon="-78.885218287">
        <ele>145.777</ele>
        <time>2008-11-01T14:49:08Z</time>
      </trkpt>
      <trkpt lat="36.529948041" lon="-78.885083254">
        <ele>142.412</ele>
        <time>2008-11-01T14:49:22Z</time>
      </trkpt>
      <trkpt lat="36.529944101" lon="-78.885076130">
        <ele>145.777</ele>
        <time>2008-11-01T14:49:26Z</time>
      </trkpt>
      <trkpt lat="36.529929936" lon="-78.884934057">
        <ele>142.412</ele>
        <time>2008-11-01T14:49:39Z</time>
      </trkpt>
      <trkpt lat="36.529930187" lon="-78.884892398">
        <ele>145.777</ele>
        <time>2008-11-01T14:49:43Z</time>
      </trkpt>
      <trkpt lat="36.529930774" lon="-78.884885106">
        <ele>141.451</ele>
        <time>2008-11-01T14:49:44Z</time>
      </trkpt>
      <trkpt lat="36.529928427" lon="-78.884831127">
        <ele>144.816</ele>
        <time>2008-11-01T14:49:49Z</time>
      </trkpt>
      <trkpt lat="36.529928343" lon="-78.884765580">
        <ele>140.970</ele>
        <time>2008-11-01T14:49:55Z</time>
      </trkpt>
      <trkpt lat="36.529926416" lon="-78.884750996">
        <ele>140.970</ele>
        <time>2008-11-01T14:49:56Z</time>
      </trkpt>
      <trkpt lat="36.529958770" lon="-78.884515548">
        <ele>138.567</ele>
        <time>2008-11-01T14:50:19Z</time>
      </trkpt>
      <trkpt lat="36.529894564" lon="-78.884409266">
        <ele>137.125</ele>
        <time>2008-11-01T14:50:42Z</time>
      </trkpt>
      <trkpt lat="36.529885260" lon="-78.884338774">
        <ele>136.164</ele>
        <time>2008-11-01T14:51:01Z</time>
      </trkpt>
      <trkpt lat="36.529877800" lon="-78.884350928">
        <ele>135.683</ele>
        <time>2008-11-01T14:51:54Z</time>
      </trkpt>
      <trkpt lat="36.529880567" lon="-78.884303067">
        <ele>136.164</ele>
        <time>2008-11-01T14:53:12Z</time>
      </trkpt>
      <trkpt lat="36.529889368" lon="-78.884214554">
        <ele>135.683</ele>
        <time>2008-11-01T14:53:37Z</time>
      </trkpt>
      <trkpt lat="36.529942844" lon="-78.884198209">
        <ele>135.683</ele>
        <time>2008-11-01T14:53:43Z</time>
      </trkpt>
      <trkpt lat="36.530206706" lon="-78.883910207">
        <ele>135.683</ele>
        <time>2008-11-01T14:54:10Z</time>
      </trkpt>
      <trkpt lat="36.530594369" lon="-78.883483401">
        <ele>135.683</ele>
        <time>2008-11-01T14:54:46Z</time>
      </trkpt>
      <trkpt lat="36.531001898" lon="-78.883083668">
        <ele>135.683</ele>
        <time>2008-11-01T14:55:21Z</time>
      </trkpt>
      <trkpt lat="36.531321667" lon="-78.882771777">
        <ele>136.164</ele>
        <time>2008-11-01T14:55:49Z</time>
      </trkpt>
      <trkpt lat="36.531681335" lon="-78.882363411">
        <ele>136.164</ele>
        <time>2008-11-01T14:56:24Z</time>
      </trkpt>
      <trkpt lat="36.531944778" lon="-78.881984968">
        <ele>135.683</ele>
        <time>2008-11-01T14:56:54Z</time>
      </trkpt>
      <trkpt lat="36.532261278" lon="-78.881556066">
        <ele>135.683</ele>
        <time>2008-11-01T14:57:29Z</time>
      </trkpt>
      <trkpt lat="36.532544335" lon="-78.881243588">
        <ele>135.203</ele>
        <time>2008-11-01T14:58:04Z</time>
      </trkpt>
      <trkpt lat="36.532875504" lon="-78.880933793">
        <ele>135.203</ele>
        <time>2008-11-01T14:58:34Z</time>
      </trkpt>
      <trkpt lat="36.533223018" lon="-78.880572198">
        <ele>135.683</ele>
        <time>2008-11-01T14:59:07Z</time>
      </trkpt>
      <trkpt lat="36.533574136" lon="-78.880252345">
        <ele>135.203</ele>
        <time>2008-11-01T14:59:38Z</time>
      </trkpt>
      <trkpt lat="36.534032123" lon="-78.879905082">
        <ele>135.203</ele>
        <time>2008-11-01T15:00:17Z</time>
      </trkpt>
      <trkpt lat="36.534416769" lon="-78.879853953">
        <ele>135.683</ele>
        <time>2008-11-01T15:00:48Z</time>
      </trkpt>
      <trkpt lat="36.534827230" lon="-78.879808523">
        <ele>134.722</ele>
        <time>2008-11-01T15:01:21Z</time>
      </trkpt>
      <trkpt lat="36.535261329" lon="-78.879756136">
        <ele>134.241</ele>
        <time>2008-11-01T15:01:54Z</time>
      </trkpt>
      <trkpt lat="36.535700290" lon="-78.879736774">
        <ele>134.241</ele>
        <time>2008-11-01T15:02:29Z</time>
      </trkpt>
      <trkpt lat="36.536133969" lon="-78.879735935">
        <ele>134.722</ele>
        <time>2008-11-01T15:03:02Z</time>
      </trkpt>
      <trkpt lat="36.536383498" lon="-78.879837357">
        <ele>134.722</ele>
        <time>2008-11-01T15:03:30Z</time>
      </trkpt>
      <trkpt lat="36.536349636" lon="-78.879844565">
        <ele>134.722</ele>
        <time>2008-11-01T15:03:57Z</time>
      </trkpt>
      <trkpt lat="36.536312504" lon="-78.879889995">
        <ele>134.722</ele>
        <time>2008-11-01T15:04:17Z</time>
      </trkpt>
      <trkpt lat="36.536328513" lon="-78.879912375">
        <ele>134.722</ele>
        <time>2008-11-01T15:04:34Z</time>
      </trkpt>
      <trkpt lat="36.536329687" lon="-78.879913297">
        <ele>134.722</ele>
        <time>2008-11-01T15:05:20Z</time>
      </trkpt>
      <trkpt lat="36.536380481" lon="-78.880005917">
        <ele>136.645</ele>
        <time>2008-11-01T15:05:34Z</time>
      </trkpt>
      <trkpt lat="36.536428761" lon="-78.880100213">
        <ele>138.087</ele>
        <time>2008-11-01T15:05:46Z</time>
      </trkpt>
      <trkpt lat="36.536494391" lon="-78.880196102">
        <ele>138.567</ele>
        <time>2008-11-01T15:06:00Z</time>
      </trkpt>
      <trkpt lat="36.536532780" lon="-78.880284531">
        <ele>139.048</ele>
        <time>2008-11-01T15:06:14Z</time>
      </trkpt>
      <trkpt lat="36.536578545" lon="-78.880397519">
        <ele>139.528</ele>
        <time>2008-11-01T15:06:27Z</time>
      </trkpt>
      <trkpt lat="36.536641242" lon="-78.880489301">
        <ele>140.490</ele>
        <time>2008-11-01T15:06:43Z</time>
      </trkpt>
      <trkpt lat="36.536679380" lon="-78.880528109">
        <ele>140.490</ele>
        <time>2008-11-01T15:06:55Z</time>
      </trkpt>
      <trkpt lat="36.536731767" lon="-78.880517129">
        <ele>140.970</ele>
        <time>2008-11-01T15:07:07Z</time>
      </trkpt>
      <trkpt lat="36.536763366" lon="-78.880447811">
        <ele>139.528</ele>
        <time>2008-11-01T15:07:14Z</time>
      </trkpt>
      <trkpt lat="36.536817765" lon="-78.880382096">
        <ele>140.490</ele>
        <time>2008-11-01T15:07:37Z</time>
      </trkpt>
      <trkpt lat="36.536862273" lon="-78.880352592">
        <ele>140.970</ele>
        <time>2008-11-01T15:08:00Z</time>
      </trkpt>
      <trkpt lat="36.536929160" lon="-78.880356196">
        <ele>142.412</ele>
        <time>2008-11-01T15:08:13Z</time>
      </trkpt>
      <trkpt lat="36.537189335" lon="-78.880344965">
        <ele>142.893</ele>
        <time>2008-11-01T15:08:36Z</time>
      </trkpt>
      <trkpt lat="36.537273573" lon="-78.880376564">
        <ele>142.893</ele>
        <time>2008-11-01T15:08:51Z</time>
      </trkpt>
      <trkpt lat="36.537280278" lon="-78.880399447">
        <ele>142.893</ele>
        <time>2008-11-01T15:08:53Z</time>
      </trkpt>
      <trkpt lat="36.537483288" lon="-78.880581837">
        <ele>142.412</ele>
        <time>2008-11-01T15:09:15Z</time>
      </trkpt>
      <trkpt lat="36.537515307" lon="-78.880587956">
        <ele>141.932</ele>
        <time>2008-11-01T15:09:18Z</time>
      </trkpt>
      <trkpt lat="36.537548918" lon="-78.880633218">
        <ele>141.932</ele>
        <time>2008-11-01T15:09:22Z</time>
      </trkpt>
      <trkpt lat="36.537635922" lon="-78.880799599">
        <ele>141.932</ele>
        <time>2008-11-01T15:09:41Z</time>
      </trkpt>
      <trkpt lat="36.537685795" lon="-78.880971344">
        <ele>142.412</ele>
        <time>2008-11-01T15:09:54Z</time>
      </trkpt>
      <trkpt lat="36.537681269" lon="-78.881200422">
        <ele>141.451</ele>
        <time>2008-11-01T15:10:15Z</time>
      </trkpt>
      <trkpt lat="36.537612202" lon="-78.881308045">
        <ele>145.296</ele>
        <time>2008-11-01T15:10:26Z</time>
      </trkpt>
      <trkpt lat="36.537611615" lon="-78.881310811">
        <ele>141.451</ele>
        <time>2008-11-01T15:10:27Z</time>
      </trkpt>
      <trkpt lat="36.537533244" lon="-78.881529327">
        <ele>141.932</ele>
        <time>2008-11-01T15:10:49Z</time>
      </trkpt>
      <trkpt lat="36.537366277" lon="-78.881860664">
        <ele>144.335</ele>
        <time>2008-11-01T15:11:18Z</time>
      </trkpt>
      <trkpt lat="36.537266364" lon="-78.882063087">
        <ele>144.335</ele>
        <time>2008-11-01T15:11:37Z</time>
      </trkpt>
      <trkpt lat="36.537100319" lon="-78.882357376">
        <ele>144.335</ele>
        <time>2008-11-01T15:12:01Z</time>
      </trkpt>
      <trkpt lat="36.536895633" lon="-78.882632637">
        <ele>145.777</ele>
        <time>2008-11-01T15:12:27Z</time>
      </trkpt>
      <trkpt lat="36.536814999" lon="-78.882838832">
        <ele>145.777</ele>
        <time>2008-11-01T15:12:46Z</time>
      </trkpt>
      <trkpt lat="36.536717936" lon="-78.882968333">
        <ele>145.777</ele>
        <time>2008-11-01T15:13:02Z</time>
      </trkpt>
      <trkpt lat="36.536611570" lon="-78.883119961">
        <ele>145.777</ele>
        <time>2008-11-01T15:13:22Z</time>
      </trkpt>
      <trkpt lat="36.536412165" lon="-78.883422548">
        <ele>146.738</ele>
        <time>2008-11-01T15:13:48Z</time>
      </trkpt>
      <trkpt lat="36.536228601" lon="-78.883742653">
        <ele>148.661</ele>
        <time>2008-11-01T15:14:15Z</time>
      </trkpt>
      <trkpt lat="36.536061466" lon="-78.884027386">
        <ele>148.661</ele>
        <time>2008-11-01T15:14:38Z</time>
      </trkpt>
      <trkpt lat="36.535923332" lon="-78.884227043">
        <ele>149.142</ele>
        <time>2008-11-01T15:14:58Z</time>
      </trkpt>
      <trkpt lat="36.535891229" lon="-78.884316981">
        <ele>149.622</ele>
        <time>2008-11-01T15:15:04Z</time>
      </trkpt>
      <trkpt lat="36.535660643" lon="-78.884636080">
        <ele>152.026</ele>
        <time>2008-11-01T15:15:32Z</time>
      </trkpt>
      <trkpt lat="36.535409018" lon="-78.884942103">
        <ele>152.987</ele>
        <time>2008-11-01T15:16:01Z</time>
      </trkpt>
      <trkpt lat="36.535260659" lon="-78.885050062">
        <ele>155.871</ele>
        <time>2008-11-01T15:16:17Z</time>
      </trkpt>
      <trkpt lat="36.535147838" lon="-78.885078477">
        <ele>156.832</ele>
        <time>2008-11-01T15:16:34Z</time>
      </trkpt>
      <trkpt lat="36.535141133" lon="-78.885095911">
        <ele>156.832</ele>
        <time>2008-11-01T15:17:00Z</time>
      </trkpt>
      <trkpt lat="36.535087908" lon="-78.885041680">
        <ele>157.313</ele>
        <time>2008-11-01T15:17:19Z</time>
      </trkpt>
      <trkpt lat="36.535087740" lon="-78.885069760">
        <ele>156.832</ele>
        <time>2008-11-01T15:17:44Z</time>
      </trkpt>
      <trkpt lat="36.535082208" lon="-78.885094402">
        <ele>157.794</ele>
        <time>2008-11-01T15:18:10Z</time>
      </trkpt>
      <trkpt lat="36.535096960" lon="-78.885160452">
        <ele>157.313</ele>
        <time>2008-11-01T15:18:59Z</time>
      </trkpt>
      <trkpt lat="36.535108024" lon="-78.885162380">
        <ele>156.352</ele>
        <time>2008-11-01T15:19:00Z</time>
      </trkpt>
      <trkpt lat="36.535350010" lon="-78.884961549">
        <ele>156.832</ele>
        <time>2008-11-01T15:19:23Z</time>
      </trkpt>
      <trkpt lat="36.535358978" lon="-78.884951072">
        <ele>155.871</ele>
        <time>2008-11-01T15:19:24Z</time>
      </trkpt>
      <trkpt lat="36.535521336" lon="-78.884730209">
        <ele>154.429</ele>
        <time>2008-11-01T15:19:48Z</time>
      </trkpt>
      <trkpt lat="36.535669276" lon="-78.884538012">
        <ele>153.948</ele>
        <time>2008-11-01T15:20:08Z</time>
      </trkpt>
      <trkpt lat="36.535797520" lon="-78.884352939">
        <ele>152.026</ele>
        <time>2008-11-01T15:20:32Z</time>
      </trkpt>
      <trkpt lat="36.535926517" lon="-78.884183289">
        <ele>151.545</ele>
        <time>2008-11-01T15:20:48Z</time>
      </trkpt>
      <trkpt lat="36.536114272" lon="-78.883911548">
        <ele>150.103</ele>
        <time>2008-11-01T15:21:14Z</time>
      </trkpt>
      <trkpt lat="36.536279730" lon="-78.883668138">
        <ele>148.661</ele>
        <time>2008-11-01T15:21:39Z</time>
      </trkpt>
      <trkpt lat="36.536458349" lon="-78.883401174">
        <ele>147.700</ele>
        <time>2008-11-01T15:22:04Z</time>
      </trkpt>
      <trkpt lat="36.536616264" lon="-78.883118704">
        <ele>147.219</ele>
        <time>2008-11-01T15:22:27Z</time>
      </trkpt>
      <trkpt lat="36.536760516" lon="-78.882836988">
        <ele>146.738</ele>
        <time>2008-11-01T15:22:52Z</time>
      </trkpt>
      <trkpt lat="36.536891023" lon="-78.882614030">
        <ele>144.816</ele>
        <time>2008-11-01T15:23:11Z</time>
      </trkpt>
      <trkpt lat="36.537076179" lon="-78.882310018">
        <ele>145.296</ele>
        <time>2008-11-01T15:23:36Z</time>
      </trkpt>
      <trkpt lat="36.537245074" lon="-78.882035343">
        <ele>144.816</ele>
        <time>2008-11-01T15:24:01Z</time>
      </trkpt>
      <trkpt lat="36.537385136" lon="-78.881788580">
        <ele>144.335</ele>
        <time>2008-11-01T15:24:21Z</time>
      </trkpt>
      <trkpt lat="36.537507344" lon="-78.881553719">
        <ele>143.374</ele>
        <time>2008-11-01T15:24:40Z</time>
      </trkpt>
      <trkpt lat="36.537651261" lon="-78.881268231">
        <ele>142.893</ele>
        <time>2008-11-01T15:25:02Z</time>
      </trkpt>
      <trkpt lat="36.537661320" lon="-78.881231351">
        <ele>139.528</ele>
        <time>2008-11-01T15:25:05Z</time>
      </trkpt>
      <trkpt lat="36.537663583" lon="-78.881219029">
        <ele>144.816</ele>
        <time>2008-11-01T15:25:06Z</time>
      </trkpt>
      <trkpt lat="36.537659978" lon="-78.881206959">
        <ele>144.335</ele>
        <time>2008-11-01T15:25:07Z</time>
      </trkpt>
      <trkpt lat="36.537660733" lon="-78.881183239">
        <ele>143.374</ele>
        <time>2008-11-01T15:25:09Z</time>
      </trkpt>
      <trkpt lat="36.537693925" lon="-78.880942846">
        <ele>142.893</ele>
        <time>2008-11-01T15:25:34Z</time>
      </trkpt>
      <trkpt lat="36.537640281" lon="-78.880745368">
        <ele>142.893</ele>
        <time>2008-11-01T15:25:54Z</time>
      </trkpt>
      <trkpt lat="36.537536932" lon="-78.880560547">
        <ele>141.451</ele>
        <time>2008-11-01T15:26:12Z</time>
      </trkpt>
      <trkpt lat="36.537477756" lon="-78.880489720">
        <ele>145.296</ele>
        <time>2008-11-01T15:26:20Z</time>
      </trkpt>
      <trkpt lat="36.537471469" lon="-78.880485445">
        <ele>142.412</ele>
        <time>2008-11-01T15:26:21Z</time>
      </trkpt>
      <trkpt lat="36.537427465" lon="-78.880422665">
        <ele>141.932</ele>
        <time>2008-11-01T15:26:40Z</time>
      </trkpt>
      <trkpt lat="36.537414975" lon="-78.880386287">
        <ele>142.893</ele>
        <time>2008-11-01T15:26:45Z</time>
      </trkpt>
      <trkpt lat="36.537327301" lon="-78.880134076">
        <ele>140.490</ele>
        <time>2008-11-01T15:27:06Z</time>
      </trkpt>
      <trkpt lat="36.537300479" lon="-78.879964426">
        <ele>137.125</ele>
        <time>2008-11-01T15:27:19Z</time>
      </trkpt>
      <trkpt lat="36.537356721" lon="-78.879720597">
        <ele>134.241</ele>
        <time>2008-11-01T15:27:37Z</time>
      </trkpt>
      <trkpt lat="36.537460154" lon="-78.879384985">
        <ele>131.357</ele>
        <time>2008-11-01T15:28:00Z</time>
      </trkpt>
      <trkpt lat="36.537518911" lon="-78.879157165">
        <ele>127.993</ele>
        <time>2008-11-01T15:28:13Z</time>
      </trkpt>
      <trkpt lat="36.537583955" lon="-78.878877545">
        <ele>125.589</ele>
        <time>2008-11-01T15:28:36Z</time>
      </trkpt>
      <trkpt lat="36.537592839" lon="-78.878690628">
        <ele>122.705</ele>
        <time>2008-11-01T15:28:50Z</time>
      </trkpt>
      <trkpt lat="36.537577920" lon="-78.878210261">
        <ele>116.457</ele>
        <time>2008-11-01T15:29:26Z</time>
      </trkpt>
      <trkpt lat="36.537620584" lon="-78.877968108">
        <ele>114.054</ele>
        <time>2008-11-01T15:29:45Z</time>
      </trkpt>
      <trkpt lat="36.537633408" lon="-78.877874650">
        <ele>113.092</ele>
        <time>2008-11-01T15:29:52Z</time>
      </trkpt>
      <trkpt lat="36.537628798" lon="-78.877485562">
        <ele>113.092</ele>
        <time>2008-11-01T15:30:15Z</time>
      </trkpt>
      <trkpt lat="36.537654027" lon="-78.877137462">
        <ele>111.650</ele>
        <time>2008-11-01T15:30:36Z</time>
      </trkpt>
      <trkpt lat="36.537662912" lon="-78.876962531">
        <ele>111.170</ele>
        <time>2008-11-01T15:30:53Z</time>
      </trkpt>
      <trkpt lat="36.537678083" lon="-78.876726078">
        <ele>110.689</ele>
        <time>2008-11-01T15:31:07Z</time>
      </trkpt>
      <trkpt lat="36.537674647" lon="-78.876377642">
        <ele>110.689</ele>
        <time>2008-11-01T15:31:30Z</time>
      </trkpt>
      <trkpt lat="36.537670707" lon="-78.876169352">
        <ele>110.689</ele>
        <time>2008-11-01T15:31:44Z</time>
      </trkpt>
      <trkpt lat="36.537646903" lon="-78.875949159">
        <ele>110.689</ele>
        <time>2008-11-01T15:31:59Z</time>
      </trkpt>
      <trkpt lat="36.537657464" lon="-78.875639867">
        <ele>110.689</ele>
        <time>2008-11-01T15:32:20Z</time>
      </trkpt>
      <trkpt lat="36.537656542" lon="-78.875232758">
        <ele>111.170</ele>
        <time>2008-11-01T15:32:46Z</time>
      </trkpt>
      <trkpt lat="36.537664086" lon="-78.874891531">
        <ele>110.689</ele>
        <time>2008-11-01T15:33:11Z</time>
      </trkpt>
      <trkpt lat="36.537667941" lon="-78.874761276">
        <ele>110.208</ele>
        <time>2008-11-01T15:33:20Z</time>
      </trkpt>
      <trkpt lat="36.537651680" lon="-78.874656502">
        <ele>110.208</ele>
        <time>2008-11-01T15:33:26Z</time>
      </trkpt>
      <trkpt lat="36.537646567" lon="-78.874466820">
        <ele>111.170</ele>
        <time>2008-11-01T15:33:45Z</time>
      </trkpt>
      <trkpt lat="36.537637934" lon="-78.874223912">
        <ele>111.170</ele>
        <time>2008-11-01T15:34:05Z</time>
      </trkpt>
      <trkpt lat="36.537686968" lon="-78.874253668">
        <ele>110.689</ele>
        <time>2008-11-01T15:34:20Z</time>
      </trkpt>
      <trkpt lat="36.537693422" lon="-78.874250818">
        <ele>110.689</ele>
        <time>2008-11-01T15:34:27Z</time>
      </trkpt>
      <trkpt lat="36.537620416" lon="-78.874180662">
        <ele>111.650</ele>
        <time>2008-11-01T15:34:46Z</time>
      </trkpt>
      <trkpt lat="36.537617650" lon="-78.874162976">
        <ele>111.650</ele>
        <time>2008-11-01T15:34:47Z</time>
      </trkpt>
      <trkpt lat="36.537644221" lon="-78.873907579">
        <ele>112.131</ele>
        <time>2008-11-01T15:35:09Z</time>
      </trkpt>
      <trkpt lat="36.537729548" lon="-78.873850917">
        <ele>111.170</ele>
        <time>2008-11-01T15:35:24Z</time>
      </trkpt>
      <trkpt lat="36.537721250" lon="-78.873837674">
        <ele>110.689</ele>
        <time>2008-11-01T15:36:05Z</time>
      </trkpt>
      <trkpt lat="36.537757963" lon="-78.873794004">
        <ele>112.131</ele>
        <time>2008-11-01T15:36:52Z</time>
      </trkpt>
      <trkpt lat="36.537962146" lon="-78.873715634">
        <ele>111.650</ele>
        <time>2008-11-01T15:37:13Z</time>
      </trkpt>
      <trkpt lat="36.538069434" lon="-78.873590659">
        <ele>111.650</ele>
        <time>2008-11-01T15:37:32Z</time>
      </trkpt>
      <trkpt lat="36.538038841" lon="-78.873613207">
        <ele>109.728</ele>
        <time>2008-11-01T15:38:16Z</time>
      </trkpt>
      <trkpt lat="36.537993411" lon="-78.873641538">
        <ele>110.689</ele>
        <time>2008-11-01T15:38:45Z</time>
      </trkpt>
      <trkpt lat="36.537967008" lon="-78.873663247">
        <ele>111.170</ele>
        <time>2008-11-01T15:38:49Z</time>
      </trkpt>
      <trkpt lat="36.537687303" lon="-78.873807164">
        <ele>111.650</ele>
        <time>2008-11-01T15:39:20Z</time>
      </trkpt>
      <trkpt lat="36.537576579" lon="-78.873946639">
        <ele>112.131</ele>
        <time>2008-11-01T15:39:36Z</time>
      </trkpt>
      <trkpt lat="36.537588397" lon="-78.874108996">
        <ele>111.650</ele>
        <time>2008-11-01T15:39:50Z</time>
      </trkpt>
      <trkpt lat="36.537602730" lon="-78.874148056">
        <ele>111.650</ele>
        <time>2008-11-01T15:39:56Z</time>
      </trkpt>
      <trkpt lat="36.537609687" lon="-78.874243526">
        <ele>115.015</ele>
        <time>2008-11-01T15:40:03Z</time>
      </trkpt>
      <trkpt lat="36.537610777" lon="-78.874257021">
        <ele>112.131</ele>
        <time>2008-11-01T15:40:04Z</time>
      </trkpt>
      <trkpt lat="36.537624858" lon="-78.874862362">
        <ele>111.650</ele>
        <time>2008-11-01T15:40:46Z</time>
      </trkpt>
      <trkpt lat="36.537621506" lon="-78.875133684">
        <ele>111.650</ele>
        <time>2008-11-01T15:41:06Z</time>
      </trkpt>
      <trkpt lat="36.537574651" lon="-78.875435935">
        <ele>112.612</ele>
        <time>2008-11-01T15:41:30Z</time>
      </trkpt>
      <trkpt lat="36.537556881" lon="-78.875785796">
        <ele>111.650</ele>
        <time>2008-11-01T15:41:53Z</time>
      </trkpt>
      <trkpt lat="36.537605245" lon="-78.876141692">
        <ele>112.612</ele>
        <time>2008-11-01T15:42:16Z</time>
      </trkpt>
      <trkpt lat="36.537604909" lon="-78.876252249">
        <ele>112.612</ele>
        <time>2008-11-01T15:42:31Z</time>
      </trkpt>
      <trkpt lat="36.537604071" lon="-78.876622058">
        <ele>113.573</ele>
        <time>2008-11-01T15:42:55Z</time>
      </trkpt>
      <trkpt lat="36.537631983" lon="-78.877039645">
        <ele>113.573</ele>
        <time>2008-11-01T15:43:24Z</time>
      </trkpt>
      <trkpt lat="36.537616309" lon="-78.877481706">
        <ele>116.457</ele>
        <time>2008-11-01T15:43:53Z</time>
      </trkpt>
      <trkpt lat="36.537611615" lon="-78.877863167">
        <ele>115.976</ele>
        <time>2008-11-01T15:44:20Z</time>
      </trkpt>
      <trkpt lat="36.537603484" lon="-78.878162568">
        <ele>119.341</ele>
        <time>2008-11-01T15:44:43Z</time>
      </trkpt>
      <trkpt lat="36.537591582" lon="-78.878455935">
        <ele>122.705</ele>
        <time>2008-11-01T15:45:08Z</time>
      </trkpt>
      <trkpt lat="36.537579009" lon="-78.878742764">
        <ele>124.628</ele>
        <time>2008-11-01T15:45:27Z</time>
      </trkpt>
      <trkpt lat="36.537574315" lon="-78.878890201">
        <ele>127.993</ele>
        <time>2008-11-01T15:45:37Z</time>
      </trkpt>
      <trkpt lat="36.537544727" lon="-78.879106371">
        <ele>130.877</ele>
        <time>2008-11-01T15:45:53Z</time>
      </trkpt>
      <trkpt lat="36.537512373" lon="-78.879303010">
        <ele>134.241</ele>
        <time>2008-11-01T15:46:08Z</time>
      </trkpt>
      <trkpt lat="36.537407432" lon="-78.879580619">
        <ele>136.164</ele>
        <time>2008-11-01T15:46:31Z</time>
      </trkpt>
      <trkpt lat="36.537329899" lon="-78.879798381">
        <ele>139.528</ele>
        <time>2008-11-01T15:46:49Z</time>
      </trkpt>
      <trkpt lat="36.537291175" lon="-78.880037516">
        <ele>142.412</ele>
        <time>2008-11-01T15:47:09Z</time>
      </trkpt>
      <trkpt lat="36.537115239" lon="-78.880218565">
        <ele>143.854</ele>
        <time>2008-11-01T15:47:30Z</time>
      </trkpt>
      <trkpt lat="36.536980709" lon="-78.880326860">
        <ele>143.374</ele>
        <time>2008-11-01T15:47:48Z</time>
      </trkpt>
      <trkpt lat="36.536926143" lon="-78.880335744">
        <ele>143.374</ele>
        <time>2008-11-01T15:47:54Z</time>
      </trkpt>
      <trkpt lat="36.536792954" lon="-78.880348066">
        <ele>147.219</ele>
        <time>2008-11-01T15:48:12Z</time>
      </trkpt>
      <trkpt lat="36.536786500" lon="-78.880343372">
        <ele>143.854</ele>
        <time>2008-11-01T15:48:14Z</time>
      </trkpt>
      <trkpt lat="36.536747860" lon="-78.880349072">
        <ele>143.854</ele>
        <time>2008-11-01T15:49:40Z</time>
      </trkpt>
      <trkpt lat="36.536670914" lon="-78.880509334">
        <ele>143.854</ele>
        <time>2008-11-01T15:50:00Z</time>
      </trkpt>
      <trkpt lat="36.536613246" lon="-78.880464658">
        <ele>143.374</ele>
        <time>2008-11-01T15:50:13Z</time>
      </trkpt>
      <trkpt lat="36.536516435" lon="-78.880404141">
        <ele>142.412</ele>
        <time>2008-11-01T15:50:34Z</time>
      </trkpt>
      <trkpt lat="36.536466647" lon="-78.880321831">
        <ele>141.932</ele>
        <time>2008-11-01T15:50:47Z</time>
      </trkpt>
      <trkpt lat="36.536419960" lon="-78.880283693">
        <ele>140.490</ele>
        <time>2008-11-01T15:51:01Z</time>
      </trkpt>
      <trkpt lat="36.536431862" lon="-78.880208507">
        <ele>140.490</ele>
        <time>2008-11-01T15:51:14Z</time>
      </trkpt>
      <trkpt lat="36.536405878" lon="-78.880110858">
        <ele>139.528</ele>
        <time>2008-11-01T15:51:27Z</time>
      </trkpt>
      <trkpt lat="36.536362628" lon="-78.880011952">
        <ele>138.567</ele>
        <time>2008-11-01T15:51:40Z</time>
      </trkpt>
      <trkpt lat="36.536289621" lon="-78.879963420">
        <ele>137.125</ele>
        <time>2008-11-01T15:51:52Z</time>
      </trkpt>
      <trkpt lat="36.536292136" lon="-78.879929641">
        <ele>136.645</ele>
        <time>2008-11-01T15:52:07Z</time>
      </trkpt>
      <trkpt lat="36.536294818" lon="-78.879929557">
        <ele>138.087</ele>
        <time>2008-11-01T15:52:50Z</time>
      </trkpt>
      <trkpt lat="36.536298590" lon="-78.879932743">
        <ele>137.125</ele>
        <time>2008-11-01T15:53:04Z</time>
      </trkpt>
      <trkpt lat="36.536299260" lon="-78.879932240">
        <ele>136.164</ele>
        <time>2008-11-01T15:53:08Z</time>
      </trkpt>
      <trkpt lat="36.536299512" lon="-78.879931401">
        <ele>138.087</ele>
        <time>2008-11-01T15:53:13Z</time>
      </trkpt>
      <trkpt lat="36.536300015" lon="-78.879929725">
        <ele>137.606</ele>
        <time>2008-11-01T15:53:20Z</time>
      </trkpt>
      <trkpt lat="36.536301356" lon="-78.879924780">
        <ele>135.683</ele>
        <time>2008-11-01T15:53:39Z</time>
      </trkpt>
      <trkpt lat="36.536301356" lon="-78.879924361">
        <ele>140.009</ele>
        <time>2008-11-01T15:53:40Z</time>
      </trkpt>
      <trkpt lat="36.536283083" lon="-78.879898461">
        <ele>136.645</ele>
        <time>2008-11-01T15:53:53Z</time>
      </trkpt>
      <trkpt lat="36.536280150" lon="-78.879898963">
        <ele>135.683</ele>
        <time>2008-11-01T15:53:55Z</time>
      </trkpt>
      <trkpt lat="36.536279647" lon="-78.879875159">
        <ele>136.645</ele>
        <time>2008-11-01T15:55:00Z</time>
      </trkpt>
      <trkpt lat="36.536284257" lon="-78.879866106">
        <ele>136.645</ele>
        <time>2008-11-01T15:55:25Z</time>
      </trkpt>
      <trkpt lat="36.536239162" lon="-78.879777594">
        <ele>137.125</ele>
        <time>2008-11-01T15:55:51Z</time>
      </trkpt>
      <trkpt lat="36.536195995" lon="-78.879782204">
        <ele>137.606</ele>
        <time>2008-11-01T15:56:00Z</time>
      </trkpt>
      <trkpt lat="36.535869269" lon="-78.879528651">
        <ele>137.606</ele>
        <time>2008-11-01T15:56:28Z</time>
      </trkpt>
      <trkpt lat="36.535349758" lon="-78.879116764">
        <ele>138.087</ele>
        <time>2008-11-01T15:57:09Z</time>
      </trkpt>
      <trkpt lat="36.535210535" lon="-78.878863463">
        <ele>138.087</ele>
        <time>2008-11-01T15:57:48Z</time>
      </trkpt>
      <trkpt lat="36.534982966" lon="-78.878670344">
        <ele>137.606</ele>
        <time>2008-11-01T15:58:09Z</time>
      </trkpt>
      <trkpt lat="36.534504611" lon="-78.878309838">
        <ele>136.645</ele>
        <time>2008-11-01T15:58:44Z</time>
      </trkpt>
      <trkpt lat="36.533963224" lon="-78.878000379">
        <ele>136.164</ele>
        <time>2008-11-01T15:59:20Z</time>
      </trkpt>
      <trkpt lat="36.533459639" lon="-78.877680022">
        <ele>136.645</ele>
        <time>2008-11-01T15:59:55Z</time>
      </trkpt>
      <trkpt lat="36.533207428" lon="-78.877576841">
        <ele>135.203</ele>
        <time>2008-11-01T16:00:35Z</time>
      </trkpt>
      <trkpt lat="36.533170044" lon="-78.877578266">
        <ele>135.203</ele>
        <time>2008-11-01T16:00:40Z</time>
      </trkpt>
      <trkpt lat="36.532780873" lon="-78.877345417">
        <ele>137.125</ele>
        <time>2008-11-01T16:01:08Z</time>
      </trkpt>
      <trkpt lat="36.532244347" lon="-78.877103180">
        <ele>137.125</ele>
        <time>2008-11-01T16:01:42Z</time>
      </trkpt>
      <trkpt lat="36.531709163" lon="-78.876818027">
        <ele>137.125</ele>
        <time>2008-11-01T16:02:17Z</time>
      </trkpt>
      <trkpt lat="36.531169536" lon="-78.876562212">
        <ele>136.164</ele>
        <time>2008-11-01T16:02:53Z</time>
      </trkpt>
      <trkpt lat="36.530719260" lon="-78.876283010">
        <ele>135.683</ele>
        <time>2008-11-01T16:03:24Z</time>
      </trkpt>
      <trkpt lat="36.530175526" lon="-78.876009593">
        <ele>136.645</ele>
        <time>2008-11-01T16:04:00Z</time>
      </trkpt>
      <trkpt lat="36.529688118" lon="-78.875765512">
        <ele>137.606</ele>
        <time>2008-11-01T16:04:34Z</time>
      </trkpt>
      <trkpt lat="36.529231304" lon="-78.875386734">
        <ele>135.683</ele>
        <time>2008-11-01T16:05:11Z</time>
      </trkpt>
      <trkpt lat="36.528806342" lon="-78.875127733">
        <ele>136.164</ele>
        <time>2008-11-01T16:05:42Z</time>
      </trkpt>
      <trkpt lat="36.528364029" lon="-78.874914078">
        <ele>135.683</ele>
        <time>2008-11-01T16:06:13Z</time>
      </trkpt>
      <trkpt lat="36.527872263" lon="-78.874702686">
        <ele>135.683</ele>
        <time>2008-11-01T16:06:47Z</time>
      </trkpt>
      <trkpt lat="36.527338251" lon="-78.874439746">
        <ele>136.645</ele>
        <time>2008-11-01T16:07:24Z</time>
      </trkpt>
      <trkpt lat="36.526819915" lon="-78.874178566">
        <ele>136.164</ele>
        <time>2008-11-01T16:08:00Z</time>
      </trkpt>
      <trkpt lat="36.526317755" lon="-78.873941023">
        <ele>136.645</ele>
        <time>2008-11-01T16:08:34Z</time>
      </trkpt>
      <trkpt lat="36.525839316" lon="-78.873723345">
        <ele>134.722</ele>
        <time>2008-11-01T16:09:07Z</time>
      </trkpt>
      <trkpt lat="36.525354339" lon="-78.873472726">
        <ele>135.203</ele>
        <time>2008-11-01T16:09:41Z</time>
      </trkpt>
      <trkpt lat="36.524783615" lon="-78.873196794">
        <ele>135.683</ele>
        <time>2008-11-01T16:10:22Z</time>
      </trkpt>
      <trkpt lat="36.524337362" lon="-78.872950533">
        <ele>134.722</ele>
        <time>2008-11-01T16:10:54Z</time>
      </trkpt>
      <trkpt lat="36.523850542" lon="-78.872683402">
        <ele>134.241</ele>
        <time>2008-11-01T16:11:29Z</time>
      </trkpt>
      <trkpt lat="36.523350226" lon="-78.872387605">
        <ele>134.241</ele>
        <time>2008-11-01T16:12:05Z</time>
      </trkpt>
      <trkpt lat="36.522877319" lon="-78.872047635">
        <ele>134.241</ele>
        <time>2008-11-01T16:12:42Z</time>
      </trkpt>
      <trkpt lat="36.522574062" lon="-78.871835740">
        <ele>134.241</ele>
        <time>2008-11-01T16:13:18Z</time>
      </trkpt>
      <trkpt lat="36.522422098" lon="-78.871803805">
        <ele>134.722</ele>
        <time>2008-11-01T16:13:53Z</time>
      </trkpt>
      <trkpt lat="36.521939887" lon="-78.871778073">
        <ele>135.683</ele>
        <time>2008-11-01T16:14:29Z</time>
      </trkpt>
      <trkpt lat="36.521466812" lon="-78.871790394">
        <ele>135.203</ele>
        <time>2008-11-01T16:15:00Z</time>
      </trkpt>
      <trkpt lat="36.520852754" lon="-78.871870022">
        <ele>135.203</ele>
        <time>2008-11-01T16:15:40Z</time>
      </trkpt>
      <trkpt lat="36.520390492" lon="-78.871947052">
        <ele>134.722</ele>
        <time>2008-11-01T16:16:11Z</time>
      </trkpt>
      <trkpt lat="36.519861175" lon="-78.872011844">
        <ele>134.722</ele>
        <time>2008-11-01T16:16:46Z</time>
      </trkpt>
      <trkpt lat="36.519396231" lon="-78.872023663">
        <ele>133.760</ele>
        <time>2008-11-01T16:17:16Z</time>
      </trkpt>
      <trkpt lat="36.518905219" lon="-78.872048305">
        <ele>134.722</ele>
        <time>2008-11-01T16:17:48Z</time>
      </trkpt>
      <trkpt lat="36.518404987" lon="-78.872082168">
        <ele>134.241</ele>
        <time>2008-11-01T16:18:22Z</time>
      </trkpt>
      <trkpt lat="36.517966613" lon="-78.872111253">
        <ele>134.722</ele>
        <time>2008-11-01T16:18:51Z</time>
      </trkpt>
      <trkpt lat="36.517211655" lon="-78.872134471">
        <ele>135.203</ele>
        <time>2008-11-01T16:19:44Z</time>
      </trkpt>
      <trkpt lat="36.516789626" lon="-78.872114774">
        <ele>134.722</ele>
        <time>2008-11-01T16:20:17Z</time>
      </trkpt>
      <trkpt lat="36.516404394" lon="-78.872059621">
        <ele>135.203</ele>
        <time>2008-11-01T16:20:46Z</time>
      </trkpt>
      <trkpt lat="36.515922435" lon="-78.871913441">
        <ele>135.203</ele>
        <time>2008-11-01T16:21:23Z</time>
      </trkpt>
      <trkpt lat="36.515555056" lon="-78.872008072">
        <ele>134.722</ele>
        <time>2008-11-01T16:21:52Z</time>
      </trkpt>
      <trkpt lat="36.515177619" lon="-78.872234719">
        <ele>134.241</ele>
        <time>2008-11-01T16:22:21Z</time>
      </trkpt>
      <trkpt lat="36.514800098" lon="-78.872481314">
        <ele>134.722</ele>
        <time>2008-11-01T16:22:51Z</time>
      </trkpt>
      <trkpt lat="36.514404137" lon="-78.872696729">
        <ele>133.760</ele>
        <time>2008-11-01T16:23:23Z</time>
      </trkpt>
      <trkpt lat="36.513970625" lon="-78.872914491">
        <ele>134.241</ele>
        <time>2008-11-01T16:23:58Z</time>
      </trkpt>
      <trkpt lat="36.513561672" lon="-78.873287318">
        <ele>134.722</ele>
        <time>2008-11-01T16:24:35Z</time>
      </trkpt>
      <trkpt lat="36.513207117" lon="-78.873597449">
        <ele>135.203</ele>
        <time>2008-11-01T16:25:07Z</time>
      </trkpt>
      <trkpt lat="36.512881815" lon="-78.873892324">
        <ele>135.683</ele>
        <time>2008-11-01T16:25:38Z</time>
      </trkpt>
      <trkpt lat="36.512667406" lon="-78.874268504">
        <ele>135.683</ele>
        <time>2008-11-01T16:26:05Z</time>
      </trkpt>
      <trkpt lat="36.512466744" lon="-78.874694975">
        <ele>136.164</ele>
        <time>2008-11-01T16:26:32Z</time>
      </trkpt>
      <trkpt lat="36.512229368" lon="-78.875193866">
        <ele>136.164</ele>
        <time>2008-11-01T16:27:03Z</time>
      </trkpt>
      <trkpt lat="36.511960058" lon="-78.875729553">
        <ele>135.683</ele>
        <time>2008-11-01T16:27:37Z</time>
      </trkpt>
      <trkpt lat="36.511756964" lon="-78.876233976">
        <ele>135.203</ele>
        <time>2008-11-01T16:28:08Z</time>
      </trkpt>
      <trkpt lat="36.511506010" lon="-78.876671009">
        <ele>134.241</ele>
        <time>2008-11-01T16:28:37Z</time>
      </trkpt>
      <trkpt lat="36.511241477" lon="-78.877047105">
        <ele>135.203</ele>
        <time>2008-11-01T16:29:03Z</time>
      </trkpt>
      <trkpt lat="36.510953642" lon="-78.877438204">
        <ele>134.722</ele>
        <time>2008-11-01T16:29:32Z</time>
      </trkpt>
      <trkpt lat="36.510782233" lon="-78.877510121">
        <ele>134.241</ele>
        <time>2008-11-01T16:29:59Z</time>
      </trkpt>
      <trkpt lat="36.510740072" lon="-78.877504254">
        <ele>134.722</ele>
        <time>2008-11-01T16:30:05Z</time>
      </trkpt>
      <trkpt lat="36.510441089" lon="-78.877796615">
        <ele>135.203</ele>
        <time>2008-11-01T16:30:32Z</time>
      </trkpt>
      <trkpt lat="36.510075890" lon="-78.878165167">
        <ele>133.760</ele>
        <time>2008-11-01T16:31:03Z</time>
      </trkpt>
      <trkpt lat="36.509719826" lon="-78.878545370">
        <ele>134.722</ele>
        <time>2008-11-01T16:31:34Z</time>
      </trkpt>
      <trkpt lat="36.509375749" lon="-78.878932614">
        <ele>134.722</ele>
        <time>2008-11-01T16:32:05Z</time>
      </trkpt>
      <trkpt lat="36.509029325" lon="-78.879272584">
        <ele>135.203</ele>
        <time>2008-11-01T16:32:35Z</time>
      </trkpt>
      <trkpt lat="36.508690361" lon="-78.879579194">
        <ele>135.683</ele>
        <time>2008-11-01T16:33:05Z</time>
      </trkpt>
      <trkpt lat="36.508285096" lon="-78.879922852">
        <ele>135.203</ele>
        <time>2008-11-01T16:33:40Z</time>
      </trkpt>
      <trkpt lat="36.508138664" lon="-78.880093172">
        <ele>135.203</ele>
        <time>2008-11-01T16:34:07Z</time>
      </trkpt>
      <trkpt lat="36.508133132" lon="-78.880116474">
        <ele>134.722</ele>
        <time>2008-11-01T16:34:24Z</time>
      </trkpt>
      <trkpt lat="36.508149812" lon="-78.880098453">
        <ele>134.722</ele>
        <time>2008-11-01T16:35:11Z</time>
      </trkpt>
      <trkpt lat="36.508150063" lon="-78.880099459">
        <ele>136.645</ele>
        <time>2008-11-01T16:35:14Z</time>
      </trkpt>
      <trkpt lat="36.508150818" lon="-78.880101806">
        <ele>135.203</ele>
        <time>2008-11-01T16:35:21Z</time>
      </trkpt>
      <trkpt lat="36.508144615" lon="-78.880119156">
        <ele>135.683</ele>
        <time>2008-11-01T16:38:54Z</time>
      </trkpt>
      <trkpt lat="36.508154925" lon="-78.880079258">
        <ele>135.683</ele>
        <time>2008-11-01T17:02:57Z</time>
      </trkpt>
      <trkpt lat="36.508166911" lon="-78.880005749">
        <ele>134.722</ele>
        <time>2008-11-01T17:03:23Z</time>
      </trkpt>
      <trkpt lat="36.508066580" lon="-78.879975574">
        <ele>135.203</ele>
        <time>2008-11-01T17:03:52Z</time>
      </trkpt>
      <trkpt lat="36.508057024" lon="-78.879972138">
        <ele>136.164</ele>
        <time>2008-11-01T17:03:53Z</time>
      </trkpt>
      <trkpt lat="36.507661566" lon="-78.879929474">
        <ele>136.164</ele>
        <time>2008-11-01T17:04:25Z</time>
      </trkpt>
      <trkpt lat="36.507330397" lon="-78.880031984">
        <ele>136.164</ele>
        <time>2008-11-01T17:04:53Z</time>
      </trkpt>
      <trkpt lat="36.506998558" lon="-78.880229713">
        <ele>136.645</ele>
        <time>2008-11-01T17:05:21Z</time>
      </trkpt>
      <trkpt lat="36.506560771" lon="-78.880431298">
        <ele>135.683</ele>
        <time>2008-11-01T17:05:57Z</time>
      </trkpt>
      <trkpt lat="36.506110411" lon="-78.880634727">
        <ele>136.164</ele>
        <time>2008-11-01T17:06:31Z</time>
      </trkpt>
      <trkpt lat="36.505560558" lon="-78.880864140">
        <ele>136.645</ele>
        <time>2008-11-01T17:07:11Z</time>
      </trkpt>
      <trkpt lat="36.505147833" lon="-78.881055750">
        <ele>137.606</ele>
        <time>2008-11-01T17:07:43Z</time>
      </trkpt>
      <trkpt lat="36.504745586" lon="-78.881250042">
        <ele>136.645</ele>
        <time>2008-11-01T17:08:14Z</time>
      </trkpt>
      <trkpt lat="36.504302518" lon="-78.881450789">
        <ele>136.645</ele>
        <time>2008-11-01T17:08:47Z</time>
      </trkpt>
      <trkpt lat="36.503858026" lon="-78.881648518">
        <ele>137.125</ele>
        <time>2008-11-01T17:09:20Z</time>
      </trkpt>
      <trkpt lat="36.503413701" lon="-78.881794196">
        <ele>137.125</ele>
        <time>2008-11-01T17:09:52Z</time>
      </trkpt>
      <trkpt lat="36.502998797" lon="-78.881854294">
        <ele>135.683</ele>
        <time>2008-11-01T17:10:23Z</time>
      </trkpt>
      <trkpt lat="36.502495380" lon="-78.881845996">
        <ele>135.203</ele>
        <time>2008-11-01T17:10:58Z</time>
      </trkpt>
      <trkpt lat="36.502004117" lon="-78.881795453">
        <ele>136.164</ele>
        <time>2008-11-01T17:11:33Z</time>
      </trkpt>
      <trkpt lat="36.501566246" lon="-78.881707191">
        <ele>135.203</ele>
        <time>2008-11-01T17:12:04Z</time>
      </trkpt>
      <trkpt lat="36.501073223" lon="-78.881590515">
        <ele>135.683</ele>
        <time>2008-11-01T17:12:38Z</time>
      </trkpt>
      <trkpt lat="36.500605009" lon="-78.881481718">
        <ele>134.241</ele>
        <time>2008-11-01T17:13:11Z</time>
      </trkpt>
      <trkpt lat="36.500122128" lon="-78.881366802">
        <ele>135.203</ele>
        <time>2008-11-01T17:13:46Z</time>
      </trkpt>
      <trkpt lat="36.499696160" lon="-78.881267225">
        <ele>136.645</ele>
        <time>2008-11-01T17:14:18Z</time>
      </trkpt>
      <trkpt lat="36.499265498" lon="-78.881173097">
        <ele>136.164</ele>
        <time>2008-11-01T17:14:49Z</time>
      </trkpt>
      <trkpt lat="36.498798206" lon="-78.881062204">
        <ele>135.683</ele>
        <time>2008-11-01T17:15:24Z</time>
      </trkpt>
      <trkpt lat="36.498377183" lon="-78.880999004">
        <ele>135.683</ele>
        <time>2008-11-01T17:15:55Z</time>
      </trkpt>
      <trkpt lat="36.497981055" lon="-78.880933877">
        <ele>135.683</ele>
        <time>2008-11-01T17:16:28Z</time>
      </trkpt>
      <trkpt lat="36.497782320" lon="-78.880846370">
        <ele>135.203</ele>
        <time>2008-11-01T17:16:54Z</time>
      </trkpt>
      <trkpt lat="36.497403374" lon="-78.880742015">
        <ele>135.203</ele>
        <time>2008-11-01T17:17:21Z</time>
      </trkpt>
      <trkpt lat="36.497012693" lon="-78.880599188">
        <ele>135.683</ele>
        <time>2008-11-01T17:17:50Z</time>
      </trkpt>
      <trkpt lat="36.496556550" lon="-78.880509753">
        <ele>134.722</ele>
        <time>2008-11-01T17:18:23Z</time>
      </trkpt>
      <trkpt lat="36.496215742" lon="-78.880297523">
        <ele>135.203</ele>
        <time>2008-11-01T17:18:52Z</time>
      </trkpt>
      <trkpt lat="36.495911144" lon="-78.879972640">
        <ele>136.164</ele>
        <time>2008-11-01T17:19:25Z</time>
      </trkpt>
      <trkpt lat="36.495655244" lon="-78.879669886">
        <ele>136.164</ele>
        <time>2008-11-01T17:19:58Z</time>
      </trkpt>
      <trkpt lat="36.495340755" lon="-78.879479365">
        <ele>136.164</ele>
        <time>2008-11-01T17:20:27Z</time>
      </trkpt>
      <trkpt lat="36.495047053" lon="-78.879212737">
        <ele>135.683</ele>
        <time>2008-11-01T17:20:56Z</time>
      </trkpt>
      <trkpt lat="36.494896263" lon="-78.878769167">
        <ele>135.203</ele>
        <time>2008-11-01T17:21:28Z</time>
      </trkpt>
      <trkpt lat="36.495047892" lon="-78.878418049">
        <ele>135.203</ele>
        <time>2008-11-01T17:21:55Z</time>
      </trkpt>
      <trkpt lat="36.495355675" lon="-78.878025357">
        <ele>135.203</ele>
        <time>2008-11-01T17:22:29Z</time>
      </trkpt>
      <trkpt lat="36.495573018" lon="-78.877584971">
        <ele>135.203</ele>
        <time>2008-11-01T17:23:01Z</time>
      </trkpt>
      <trkpt lat="36.495883148" lon="-78.877164619">
        <ele>134.722</ele>
        <time>2008-11-01T17:23:36Z</time>
      </trkpt>
      <trkpt lat="36.496018851" lon="-78.876719037">
        <ele>135.203</ele>
        <time>2008-11-01T17:24:07Z</time>
      </trkpt>
      <trkpt lat="36.495811734" lon="-78.876440255">
        <ele>134.241</ele>
        <time>2008-11-01T17:24:35Z</time>
      </trkpt>
      <trkpt lat="36.495514344" lon="-78.876551399">
        <ele>134.241</ele>
        <time>2008-11-01T17:25:04Z</time>
      </trkpt>
      <trkpt lat="36.495309575" lon="-78.876864966">
        <ele>134.722</ele>
        <time>2008-11-01T17:25:32Z</time>
      </trkpt>
      <trkpt lat="36.495153755" lon="-78.877172163">
        <ele>134.241</ele>
        <time>2008-11-01T17:26:01Z</time>
      </trkpt>
      <trkpt lat="36.494932976" lon="-78.877418758">
        <ele>134.241</ele>
        <time>2008-11-01T17:26:31Z</time>
      </trkpt>
      <trkpt lat="36.494714795" lon="-78.877576925">
        <ele>134.241</ele>
        <time>2008-11-01T17:26:56Z</time>
      </trkpt>
      <trkpt lat="36.494414555" lon="-78.877828382">
        <ele>134.241</ele>
        <time>2008-11-01T17:27:27Z</time>
      </trkpt>
      <trkpt lat="36.494148178" lon="-78.878096854">
        <ele>134.722</ele>
        <time>2008-11-01T17:27:56Z</time>
      </trkpt>
      <trkpt lat="36.493957406" lon="-78.878508657">
        <ele>133.760</ele>
        <time>2008-11-01T17:28:28Z</time>
      </trkpt>
      <trkpt lat="36.493856823" lon="-78.879045770">
        <ele>133.760</ele>
        <time>2008-11-01T17:29:02Z</time>
      </trkpt>
      <trkpt lat="36.493809968" lon="-78.879628396">
        <ele>133.760</ele>
        <time>2008-11-01T17:29:39Z</time>
      </trkpt>
      <trkpt lat="36.493756240" lon="-78.879979011">
        <ele>133.760</ele>
        <time>2008-11-01T17:30:11Z</time>
      </trkpt>
      <trkpt lat="36.493746853" lon="-78.880271874">
        <ele>134.241</ele>
        <time>2008-11-01T17:30:38Z</time>
      </trkpt>
      <trkpt lat="36.493710810" lon="-78.880338091">
        <ele>134.722</ele>
        <time>2008-11-01T17:30:45Z</time>
      </trkpt>
      <trkpt lat="36.493401267" lon="-78.880347982">
        <ele>134.241</ele>
        <time>2008-11-01T17:31:12Z</time>
      </trkpt>
      <trkpt lat="36.493056016" lon="-78.880259134">
        <ele>134.241</ele>
        <time>2008-11-01T17:31:43Z</time>
      </trkpt>
      <trkpt lat="36.492651757" lon="-78.880138854">
        <ele>134.241</ele>
        <time>2008-11-01T17:32:14Z</time>
      </trkpt>
      <trkpt lat="36.492313044" lon="-78.880057717">
        <ele>133.760</ele>
        <time>2008-11-01T17:32:45Z</time>
      </trkpt>
      <trkpt lat="36.492169378" lon="-78.880205406">
        <ele>134.241</ele>
        <time>2008-11-01T17:33:34Z</time>
      </trkpt>
      <trkpt lat="36.491968213" lon="-78.880235245">
        <ele>133.760</ele>
        <time>2008-11-01T17:33:56Z</time>
      </trkpt>
      <trkpt lat="36.491594044" lon="-78.880101386">
        <ele>134.241</ele>
        <time>2008-11-01T17:34:25Z</time>
      </trkpt>
      <trkpt lat="36.491147708" lon="-78.879958391">
        <ele>133.760</ele>
        <time>2008-11-01T17:35:00Z</time>
      </trkpt>
      <trkpt lat="36.490690978" lon="-78.879767535">
        <ele>134.722</ele>
        <time>2008-11-01T17:35:36Z</time>
      </trkpt>
      <trkpt lat="36.490243385" lon="-78.879562095">
        <ele>134.241</ele>
        <time>2008-11-01T17:36:12Z</time>
      </trkpt>
      <trkpt lat="36.489788415" lon="-78.879342405">
        <ele>134.241</ele>
        <time>2008-11-01T17:36:49Z</time>
      </trkpt>
      <trkpt lat="36.489352891" lon="-78.879113831">
        <ele>133.760</ele>
        <time>2008-11-01T17:37:25Z</time>
      </trkpt>
      <trkpt lat="36.489240658" lon="-78.879077705">
        <ele>134.241</ele>
        <time>2008-11-01T17:37:35Z</time>
      </trkpt>
      <trkpt lat="36.489102859" lon="-78.879140150">
        <ele>133.760</ele>
        <time>2008-11-01T17:37:52Z</time>
      </trkpt>
      <trkpt lat="36.488688877" lon="-78.879288258">
        <ele>133.280</ele>
        <time>2008-11-01T17:38:23Z</time>
      </trkpt>
      <trkpt lat="36.488233488" lon="-78.879423710">
        <ele>133.280</ele>
        <time>2008-11-01T17:38:57Z</time>
      </trkpt>
      <trkpt lat="36.487806262" lon="-78.879530663">
        <ele>132.799</ele>
        <time>2008-11-01T17:39:29Z</time>
      </trkpt>
      <trkpt lat="36.487339390" lon="-78.879647087">
        <ele>132.319</ele>
        <time>2008-11-01T17:40:03Z</time>
      </trkpt>
      <trkpt lat="36.486901268" lon="-78.879746161">
        <ele>132.319</ele>
        <time>2008-11-01T17:40:36Z</time>
      </trkpt>
      <trkpt lat="36.486452166" lon="-78.879809193">
        <ele>133.280</ele>
        <time>2008-11-01T17:41:11Z</time>
      </trkpt>
      <trkpt lat="36.486018319" lon="-78.879853198">
        <ele>133.280</ele>
        <time>2008-11-01T17:41:44Z</time>
      </trkpt>
      <trkpt lat="36.485595116" lon="-78.879902316">
        <ele>132.799</ele>
        <time>2008-11-01T17:42:17Z</time>
      </trkpt>
      <trkpt lat="36.485184990" lon="-78.879990997">
        <ele>132.319</ele>
        <time>2008-11-01T17:42:48Z</time>
      </trkpt>
      <trkpt lat="36.484743431" lon="-78.880094513">
        <ele>131.838</ele>
        <time>2008-11-01T17:43:21Z</time>
      </trkpt>
      <trkpt lat="36.484486358" lon="-78.880045898">
        <ele>132.319</ele>
        <time>2008-11-01T17:43:51Z</time>
      </trkpt>
      <trkpt lat="36.484234063" lon="-78.880157042">
        <ele>132.799</ele>
        <time>2008-11-01T17:44:16Z</time>
      </trkpt>
      <trkpt lat="36.483865511" lon="-78.880274892">
        <ele>132.799</ele>
        <time>2008-11-01T17:44:46Z</time>
      </trkpt>
      <trkpt lat="36.483440213" lon="-78.880299116">
        <ele>133.280</ele>
        <time>2008-11-01T17:45:18Z</time>
      </trkpt>
      <trkpt lat="36.483085072" lon="-78.880237089">
        <ele>133.280</ele>
        <time>2008-11-01T17:45:46Z</time>
      </trkpt>
      <trkpt lat="36.482780306" lon="-78.880095938">
        <ele>132.799</ele>
        <time>2008-11-01T17:46:11Z</time>
      </trkpt>
      <trkpt lat="36.482477635" lon="-78.879839452">
        <ele>133.280</ele>
        <time>2008-11-01T17:46:39Z</time>
      </trkpt>
      <trkpt lat="36.482147137" lon="-78.879593192">
        <ele>132.799</ele>
        <time>2008-11-01T17:47:08Z</time>
      </trkpt>
      <trkpt lat="36.481826948" lon="-78.879248025">
        <ele>132.799</ele>
        <time>2008-11-01T17:47:39Z</time>
      </trkpt>
      <trkpt lat="36.481570965" lon="-78.878903780">
        <ele>132.319</ele>
        <time>2008-11-01T17:48:07Z</time>
      </trkpt>
      <trkpt lat="36.481269803" lon="-78.878598092">
        <ele>132.799</ele>
        <time>2008-11-01T17:48:37Z</time>
      </trkpt>
      <trkpt lat="36.481000492" lon="-78.878346635">
        <ele>132.799</ele>
        <time>2008-11-01T17:49:03Z</time>
      </trkpt>
      <trkpt lat="36.480697319" lon="-78.878077827">
        <ele>133.280</ele>
        <time>2008-11-01T17:49:32Z</time>
      </trkpt>
      <trkpt lat="36.480423314" lon="-78.877763757">
        <ele>132.799</ele>
        <time>2008-11-01T17:50:01Z</time>
      </trkpt>
      <trkpt lat="36.480228016" lon="-78.877433259">
        <ele>132.319</ele>
        <time>2008-11-01T17:50:31Z</time>
      </trkpt>
      <trkpt lat="36.480220975" lon="-78.877379447">
        <ele>133.280</ele>
        <time>2008-11-01T17:50:53Z</time>
      </trkpt>
      <trkpt lat="36.480236230" lon="-78.877361426">
        <ele>133.280</ele>
        <time>2008-11-01T17:51:12Z</time>
      </trkpt>
      <trkpt lat="36.480234889" lon="-78.877359498">
        <ele>132.319</ele>
        <time>2008-11-01T17:51:47Z</time>
      </trkpt>
    </trkseg>
  </trk>
</gpx>
